<?xml version="1.0" encoding="UTF-8" standalone="no" ?>
<gpx xmlns="http://www.topografix.com/GPX/1/1" xmlns:xsi="http://www.w3.org/2001/XMLSchema-instance" xsi:schemaLocation="http://www.topografix.com/GPX/1/1 http://www.topografix.com/GPX/1/1/gpx.xsd" version="1.1" creator="VisuGPX - https://www.visugpx.com">
  <metadata>
    <name>CARREFOUR DE LUYNES 1---------</name>
  </metadata>
  <trk>
    <name><![CDATA[CARREFOUR DE LUYNES 1---------]]></name>
    <trkseg>
      <trkpt lat="48.59234" lon="1.96669">
        <ele>33.78</ele>
        <time>2016-06-09T07:25:19Z</time>
      </trkpt>
      <trkpt lat="48.59232" lon="1.9667">
        <ele>32.34</ele>
        <time>2016-06-09T07:25:20Z</time>
      </trkpt>
      <trkpt lat="48.59161" lon="1.96599">
        <ele>32.34</ele>
        <time>2016-06-09T07:25:35Z</time>
      </trkpt>
      <trkpt lat="48.59154" lon="1.96598">
        <ele>32.34</ele>
        <time>2016-06-09T07:25:47Z</time>
      </trkpt>
      <trkpt lat="48.59155" lon="1.96609">
        <ele>32.34</ele>
        <time>2016-06-09T07:26:04Z</time>
      </trkpt>
      <trkpt lat="48.59152" lon="1.96614">
        <ele>32.34</ele>
        <time>2016-06-09T07:26:25Z</time>
      </trkpt>
      <trkpt lat="48.59152" lon="1.96614">
        <ele>32.34</ele>
        <time>2016-06-09T07:26:40Z</time>
      </trkpt>
      <trkpt lat="48.59161" lon="1.96604">
        <ele>31.86</ele>
        <time>2016-06-09T07:26:56Z</time>
      </trkpt>
      <trkpt lat="48.59164" lon="1.96603">
        <ele>36.19</ele>
        <time>2016-06-09T07:26:58Z</time>
      </trkpt>
      <trkpt lat="48.59165" lon="1.96603">
        <ele>39.55</ele>
        <time>2016-06-09T07:26:59Z</time>
      </trkpt>
      <trkpt lat="48.59166" lon="1.96603">
        <ele>42.92</ele>
        <time>2016-06-09T07:27:00Z</time>
      </trkpt>
      <trkpt lat="48.5917" lon="1.96604">
        <ele>48.68</ele>
        <time>2016-06-09T07:27:02Z</time>
      </trkpt>
      <trkpt lat="48.59171" lon="1.96604">
        <ele>52.05</ele>
        <time>2016-06-09T07:27:03Z</time>
      </trkpt>
      <trkpt lat="48.59172" lon="1.96603">
        <ele>57.34</ele>
        <time>2016-06-09T07:27:05Z</time>
      </trkpt>
      <trkpt lat="48.59174" lon="1.96603">
        <ele>62.14</ele>
        <time>2016-06-09T07:27:07Z</time>
      </trkpt>
      <trkpt lat="48.59176" lon="1.96602">
        <ele>66.47</ele>
        <time>2016-06-09T07:27:09Z</time>
      </trkpt>
      <trkpt lat="48.59178" lon="1.96601">
        <ele>70.79</ele>
        <time>2016-06-09T07:27:11Z</time>
      </trkpt>
      <trkpt lat="48.59179" lon="1.966">
        <ele>74.64</ele>
        <time>2016-06-09T07:27:13Z</time>
      </trkpt>
      <trkpt lat="48.59181" lon="1.96599">
        <ele>78</ele>
        <time>2016-06-09T07:27:15Z</time>
      </trkpt>
      <trkpt lat="48.59182" lon="1.96595">
        <ele>82.81</ele>
        <time>2016-06-09T07:27:18Z</time>
      </trkpt>
      <trkpt lat="48.59182" lon="1.96592">
        <ele>86.18</ele>
        <time>2016-06-09T07:27:21Z</time>
      </trkpt>
      <trkpt lat="48.59184" lon="1.96587">
        <ele>90.02</ele>
        <time>2016-06-09T07:27:24Z</time>
      </trkpt>
      <trkpt lat="48.59186" lon="1.96581">
        <ele>94.35</ele>
        <time>2016-06-09T07:27:28Z</time>
      </trkpt>
      <trkpt lat="48.59188" lon="1.96574">
        <ele>98.67</ele>
        <time>2016-06-09T07:27:33Z</time>
      </trkpt>
      <trkpt lat="48.59191" lon="1.96566">
        <ele>101.56</ele>
        <time>2016-06-09T07:27:38Z</time>
      </trkpt>
      <trkpt lat="48.59195" lon="1.96559">
        <ele>104.92</ele>
        <time>2016-06-09T07:27:44Z</time>
      </trkpt>
      <trkpt lat="48.59197" lon="1.96556">
        <ele>105.4</ele>
        <time>2016-06-09T07:27:46Z</time>
      </trkpt>
      <trkpt lat="48.59205" lon="1.96547">
        <ele>107.81</ele>
        <time>2016-06-09T07:27:56Z</time>
      </trkpt>
      <trkpt lat="48.59219" lon="1.96531">
        <ele>109.73</ele>
        <time>2016-06-09T07:28:11Z</time>
      </trkpt>
      <trkpt lat="48.5922" lon="1.9653">
        <ele>110.21</ele>
        <time>2016-06-09T07:28:12Z</time>
      </trkpt>
      <trkpt lat="48.59229" lon="1.96521">
        <ele>111.17</ele>
        <time>2016-06-09T07:28:21Z</time>
      </trkpt>
      <trkpt lat="48.59243" lon="1.96505">
        <ele>113.09</ele>
        <time>2016-06-09T07:28:37Z</time>
      </trkpt>
      <trkpt lat="48.59253" lon="1.9649">
        <ele>114.53</ele>
        <time>2016-06-09T07:28:51Z</time>
      </trkpt>
      <trkpt lat="48.59269" lon="1.96485">
        <ele>116.94</ele>
        <time>2016-06-09T07:29:05Z</time>
      </trkpt>
      <trkpt lat="48.59289" lon="1.96492">
        <ele>118.86</ele>
        <time>2016-06-09T07:29:20Z</time>
      </trkpt>
      <trkpt lat="48.59293" lon="1.96492">
        <ele>119.82</ele>
        <time>2016-06-09T07:29:23Z</time>
      </trkpt>
      <trkpt lat="48.59311" lon="1.96499">
        <ele>119.82</ele>
        <time>2016-06-09T07:29:37Z</time>
      </trkpt>
      <trkpt lat="48.59328" lon="1.96512">
        <ele>120.78</ele>
        <time>2016-06-09T07:29:50Z</time>
      </trkpt>
      <trkpt lat="48.59343" lon="1.96526">
        <ele>121.26</ele>
        <time>2016-06-09T07:30:03Z</time>
      </trkpt>
      <trkpt lat="48.59344" lon="1.96526">
        <ele>121.26</ele>
        <time>2016-06-09T07:30:04Z</time>
      </trkpt>
      <trkpt lat="48.59348" lon="1.96528">
        <ele>121.26</ele>
        <time>2016-06-09T07:30:07Z</time>
      </trkpt>
      <trkpt lat="48.59367" lon="1.9654">
        <ele>123.67</ele>
        <time>2016-06-09T07:30:21Z</time>
      </trkpt>
      <trkpt lat="48.59384" lon="1.96553">
        <ele>124.63</ele>
        <time>2016-06-09T07:30:36Z</time>
      </trkpt>
      <trkpt lat="48.59388" lon="1.96556">
        <ele>125.59</ele>
        <time>2016-06-09T07:30:40Z</time>
      </trkpt>
      <trkpt lat="48.59391" lon="1.96561">
        <ele>125.59</ele>
        <time>2016-06-09T07:30:43Z</time>
      </trkpt>
      <trkpt lat="48.59404" lon="1.96576">
        <ele>127.51</ele>
        <time>2016-06-09T07:30:57Z</time>
      </trkpt>
      <trkpt lat="48.59422" lon="1.96585">
        <ele>129.43</ele>
        <time>2016-06-09T07:31:11Z</time>
      </trkpt>
      <trkpt lat="48.59431" lon="1.96591">
        <ele>129.92</ele>
        <time>2016-06-09T07:31:18Z</time>
      </trkpt>
      <trkpt lat="48.59436" lon="1.96596">
        <ele>130.4</ele>
        <time>2016-06-09T07:31:27Z</time>
      </trkpt>
      <trkpt lat="48.59451" lon="1.96608">
        <ele>131.36</ele>
        <time>2016-06-09T07:31:41Z</time>
      </trkpt>
      <trkpt lat="48.59467" lon="1.96618">
        <ele>132.32</ele>
        <time>2016-06-09T07:31:54Z</time>
      </trkpt>
      <trkpt lat="48.59468" lon="1.96618">
        <ele>131.84</ele>
        <time>2016-06-09T07:31:55Z</time>
      </trkpt>
      <trkpt lat="48.59471" lon="1.96619">
        <ele>132.8</ele>
        <time>2016-06-09T07:31:58Z</time>
      </trkpt>
      <trkpt lat="48.59479" lon="1.96622">
        <ele>133.76</ele>
        <time>2016-06-09T07:32:07Z</time>
      </trkpt>
      <trkpt lat="48.59493" lon="1.96629">
        <ele>135.2</ele>
        <time>2016-06-09T07:32:20Z</time>
      </trkpt>
      <trkpt lat="48.59497" lon="1.96632">
        <ele>135.2</ele>
        <time>2016-06-09T07:32:24Z</time>
      </trkpt>
      <trkpt lat="48.59501" lon="1.96635">
        <ele>135.2</ele>
        <time>2016-06-09T07:32:28Z</time>
      </trkpt>
      <trkpt lat="48.59509" lon="1.96642">
        <ele>134.72</ele>
        <time>2016-06-09T07:32:37Z</time>
      </trkpt>
      <trkpt lat="48.5952" lon="1.96651">
        <ele>133.76</ele>
        <time>2016-06-09T07:32:48Z</time>
      </trkpt>
      <trkpt lat="48.59532" lon="1.9666">
        <ele>133.28</ele>
        <time>2016-06-09T07:32:58Z</time>
      </trkpt>
      <trkpt lat="48.59535" lon="1.96664">
        <ele>133.28</ele>
        <time>2016-06-09T07:33:01Z</time>
      </trkpt>
      <trkpt lat="48.59548" lon="1.96675">
        <ele>132.8</ele>
        <time>2016-06-09T07:33:13Z</time>
      </trkpt>
      <trkpt lat="48.5956" lon="1.96685">
        <ele>131.84</ele>
        <time>2016-06-09T07:33:26Z</time>
      </trkpt>
      <trkpt lat="48.59563" lon="1.96689">
        <ele>131.36</ele>
        <time>2016-06-09T07:33:30Z</time>
      </trkpt>
      <trkpt lat="48.59577" lon="1.96704">
        <ele>130.4</ele>
        <time>2016-06-09T07:33:43Z</time>
      </trkpt>
      <trkpt lat="48.59592" lon="1.96714">
        <ele>130.4</ele>
        <time>2016-06-09T07:33:56Z</time>
      </trkpt>
      <trkpt lat="48.59604" lon="1.96723">
        <ele>129.92</ele>
        <time>2016-06-09T07:34:06Z</time>
      </trkpt>
      <trkpt lat="48.59608" lon="1.96726">
        <ele>130.4</ele>
        <time>2016-06-09T07:34:10Z</time>
      </trkpt>
      <trkpt lat="48.59623" lon="1.96738">
        <ele>129.92</ele>
        <time>2016-06-09T07:34:22Z</time>
      </trkpt>
      <trkpt lat="48.59637" lon="1.9675">
        <ele>129.43</ele>
        <time>2016-06-09T07:34:34Z</time>
      </trkpt>
      <trkpt lat="48.59654" lon="1.96764">
        <ele>128.47</ele>
        <time>2016-06-09T07:34:49Z</time>
      </trkpt>
      <trkpt lat="48.5966" lon="1.96771">
        <ele>127.99</ele>
        <time>2016-06-09T07:34:56Z</time>
      </trkpt>
      <trkpt lat="48.59668" lon="1.9678">
        <ele>127.03</ele>
        <time>2016-06-09T07:35:03Z</time>
      </trkpt>
      <trkpt lat="48.59678" lon="1.96791">
        <ele>126.07</ele>
        <time>2016-06-09T07:35:14Z</time>
      </trkpt>
      <trkpt lat="48.59684" lon="1.96796">
        <ele>125.11</ele>
        <time>2016-06-09T07:35:18Z</time>
      </trkpt>
      <trkpt lat="48.5969" lon="1.96808">
        <ele>125.11</ele>
        <time>2016-06-09T07:35:25Z</time>
      </trkpt>
      <trkpt lat="48.59698" lon="1.96816">
        <ele>125.11</ele>
        <time>2016-06-09T07:35:32Z</time>
      </trkpt>
      <trkpt lat="48.59708" lon="1.96825">
        <ele>126.55</ele>
        <time>2016-06-09T07:35:42Z</time>
      </trkpt>
      <trkpt lat="48.59719" lon="1.96836">
        <ele>127.51</ele>
        <time>2016-06-09T07:35:57Z</time>
      </trkpt>
      <trkpt lat="48.59719" lon="1.96838">
        <ele>127.51</ele>
        <time>2016-06-09T07:35:58Z</time>
      </trkpt>
      <trkpt lat="48.59722" lon="1.96841">
        <ele>127.51</ele>
        <time>2016-06-09T07:36:00Z</time>
      </trkpt>
      <trkpt lat="48.59742" lon="1.96857">
        <ele>127.03</ele>
        <time>2016-06-09T07:36:15Z</time>
      </trkpt>
      <trkpt lat="48.5975" lon="1.96864">
        <ele>127.51</ele>
        <time>2016-06-09T07:36:20Z</time>
      </trkpt>
      <trkpt lat="48.59755" lon="1.96868">
        <ele>127.03</ele>
        <time>2016-06-09T07:36:23Z</time>
      </trkpt>
      <trkpt lat="48.59769" lon="1.96877">
        <ele>127.03</ele>
        <time>2016-06-09T07:36:34Z</time>
      </trkpt>
      <trkpt lat="48.59781" lon="1.96887">
        <ele>127.03</ele>
        <time>2016-06-09T07:36:45Z</time>
      </trkpt>
      <trkpt lat="48.59783" lon="1.96892">
        <ele>127.03</ele>
        <time>2016-06-09T07:36:48Z</time>
      </trkpt>
      <trkpt lat="48.59798" lon="1.96908">
        <ele>126.07</ele>
        <time>2016-06-09T07:37:01Z</time>
      </trkpt>
      <trkpt lat="48.59806" lon="1.96915">
        <ele>125.59</ele>
        <time>2016-06-09T07:37:08Z</time>
      </trkpt>
      <trkpt lat="48.59808" lon="1.96918">
        <ele>125.11</ele>
        <time>2016-06-09T07:37:10Z</time>
      </trkpt>
      <trkpt lat="48.59816" lon="1.96924">
        <ele>124.63</ele>
        <time>2016-06-09T07:37:17Z</time>
      </trkpt>
      <trkpt lat="48.59834" lon="1.96938">
        <ele>125.11</ele>
        <time>2016-06-09T07:37:31Z</time>
      </trkpt>
      <trkpt lat="48.59843" lon="1.96947">
        <ele>125.11</ele>
        <time>2016-06-09T07:37:39Z</time>
      </trkpt>
      <trkpt lat="48.59844" lon="1.96955">
        <ele>125.11</ele>
        <time>2016-06-09T07:37:42Z</time>
      </trkpt>
      <trkpt lat="48.59861" lon="1.96972">
        <ele>125.11</ele>
        <time>2016-06-09T07:37:56Z</time>
      </trkpt>
      <trkpt lat="48.59862" lon="1.96972">
        <ele>125.11</ele>
        <time>2016-06-09T07:37:57Z</time>
      </trkpt>
      <trkpt lat="48.59866" lon="1.96974">
        <ele>124.63</ele>
        <time>2016-06-09T07:38:00Z</time>
      </trkpt>
      <trkpt lat="48.59874" lon="1.96981">
        <ele>124.63</ele>
        <time>2016-06-09T07:38:07Z</time>
      </trkpt>
      <trkpt lat="48.59879" lon="1.96989">
        <ele>124.15</ele>
        <time>2016-06-09T07:38:14Z</time>
      </trkpt>
      <trkpt lat="48.59882" lon="1.96992">
        <ele>124.15</ele>
        <time>2016-06-09T07:38:16Z</time>
      </trkpt>
      <trkpt lat="48.59889" lon="1.97001">
        <ele>124.15</ele>
        <time>2016-06-09T07:38:22Z</time>
      </trkpt>
      <trkpt lat="48.59907" lon="1.97013">
        <ele>123.67</ele>
        <time>2016-06-09T07:38:37Z</time>
      </trkpt>
      <trkpt lat="48.5991" lon="1.97017">
        <ele>123.67</ele>
        <time>2016-06-09T07:38:40Z</time>
      </trkpt>
      <trkpt lat="48.59916" lon="1.97023">
        <ele>123.19</ele>
        <time>2016-06-09T07:38:46Z</time>
      </trkpt>
      <trkpt lat="48.59919" lon="1.97025">
        <ele>123.19</ele>
        <time>2016-06-09T07:38:48Z</time>
      </trkpt>
      <trkpt lat="48.59921" lon="1.97027">
        <ele>123.19</ele>
        <time>2016-06-09T07:38:50Z</time>
      </trkpt>
      <trkpt lat="48.59927" lon="1.97032">
        <ele>122.71</ele>
        <time>2016-06-09T07:38:54Z</time>
      </trkpt>
      <trkpt lat="48.59942" lon="1.97044">
        <ele>122.71</ele>
        <time>2016-06-09T07:39:06Z</time>
      </trkpt>
      <trkpt lat="48.59948" lon="1.97052">
        <ele>122.22</ele>
        <time>2016-06-09T07:39:12Z</time>
      </trkpt>
      <trkpt lat="48.59955" lon="1.97062">
        <ele>122.22</ele>
        <time>2016-06-09T07:39:19Z</time>
      </trkpt>
      <trkpt lat="48.59968" lon="1.97074">
        <ele>121.26</ele>
        <time>2016-06-09T07:39:30Z</time>
      </trkpt>
      <trkpt lat="48.59986" lon="1.97093">
        <ele>120.78</ele>
        <time>2016-06-09T07:39:46Z</time>
      </trkpt>
      <trkpt lat="48.60004" lon="1.97105">
        <ele>120.78</ele>
        <time>2016-06-09T07:39:59Z</time>
      </trkpt>
      <trkpt lat="48.60018" lon="1.97121">
        <ele>120.3</ele>
        <time>2016-06-09T07:40:13Z</time>
      </trkpt>
      <trkpt lat="48.60023" lon="1.97126">
        <ele>120.3</ele>
        <time>2016-06-09T07:40:17Z</time>
      </trkpt>
      <trkpt lat="48.60028" lon="1.97128">
        <ele>120.78</ele>
        <time>2016-06-09T07:40:21Z</time>
      </trkpt>
      <trkpt lat="48.60032" lon="1.97131">
        <ele>120.3</ele>
        <time>2016-06-09T07:40:24Z</time>
      </trkpt>
      <trkpt lat="48.60035" lon="1.97136">
        <ele>120.78</ele>
        <time>2016-06-09T07:40:27Z</time>
      </trkpt>
      <trkpt lat="48.60046" lon="1.97148">
        <ele>122.22</ele>
        <time>2016-06-09T07:40:36Z</time>
      </trkpt>
      <trkpt lat="48.60064" lon="1.97168">
        <ele>124.15</ele>
        <time>2016-06-09T07:40:52Z</time>
      </trkpt>
      <trkpt lat="48.60065" lon="1.97173">
        <ele>124.63</ele>
        <time>2016-06-09T07:40:55Z</time>
      </trkpt>
      <trkpt lat="48.60075" lon="1.97187">
        <ele>124.15</ele>
        <time>2016-06-09T07:41:05Z</time>
      </trkpt>
      <trkpt lat="48.60078" lon="1.97189">
        <ele>124.15</ele>
        <time>2016-06-09T07:41:08Z</time>
      </trkpt>
      <trkpt lat="48.60087" lon="1.97197">
        <ele>123.67</ele>
        <time>2016-06-09T07:41:16Z</time>
      </trkpt>
      <trkpt lat="48.60095" lon="1.97222">
        <ele>124.15</ele>
        <time>2016-06-09T07:41:28Z</time>
      </trkpt>
      <trkpt lat="48.60097" lon="1.97229">
        <ele>124.15</ele>
        <time>2016-06-09T07:41:31Z</time>
      </trkpt>
      <trkpt lat="48.60102" lon="1.97238">
        <ele>124.15</ele>
        <time>2016-06-09T07:41:36Z</time>
      </trkpt>
      <trkpt lat="48.60108" lon="1.97245">
        <ele>123.67</ele>
        <time>2016-06-09T07:41:41Z</time>
      </trkpt>
      <trkpt lat="48.6012" lon="1.97263">
        <ele>123.67</ele>
        <time>2016-06-09T07:41:52Z</time>
      </trkpt>
      <trkpt lat="48.60122" lon="1.97266">
        <ele>123.67</ele>
        <time>2016-06-09T07:41:54Z</time>
      </trkpt>
      <trkpt lat="48.60133" lon="1.97284">
        <ele>123.19</ele>
        <time>2016-06-09T07:42:09Z</time>
      </trkpt>
      <trkpt lat="48.60139" lon="1.97298">
        <ele>122.71</ele>
        <time>2016-06-09T07:42:22Z</time>
      </trkpt>
      <trkpt lat="48.60141" lon="1.97317">
        <ele>122.71</ele>
        <time>2016-06-09T07:42:41Z</time>
      </trkpt>
      <trkpt lat="48.60143" lon="1.97321">
        <ele>122.22</ele>
        <time>2016-06-09T07:42:57Z</time>
      </trkpt>
      <trkpt lat="48.60144" lon="1.97323">
        <ele>121.74</ele>
        <time>2016-06-09T07:43:06Z</time>
      </trkpt>
      <trkpt lat="48.60145" lon="1.97324">
        <ele>122.22</ele>
        <time>2016-06-09T07:43:08Z</time>
      </trkpt>
      <trkpt lat="48.60148" lon="1.97328">
        <ele>122.22</ele>
        <time>2016-06-09T07:43:12Z</time>
      </trkpt>
      <trkpt lat="48.60159" lon="1.97337">
        <ele>121.26</ele>
        <time>2016-06-09T07:43:25Z</time>
      </trkpt>
      <trkpt lat="48.60173" lon="1.97352">
        <ele>121.26</ele>
        <time>2016-06-09T07:43:38Z</time>
      </trkpt>
      <trkpt lat="48.60174" lon="1.97352">
        <ele>121.26</ele>
        <time>2016-06-09T07:43:39Z</time>
      </trkpt>
      <trkpt lat="48.60182" lon="1.97361">
        <ele>120.3</ele>
        <time>2016-06-09T07:43:51Z</time>
      </trkpt>
      <trkpt lat="48.60192" lon="1.9737">
        <ele>119.82</ele>
        <time>2016-06-09T07:44:00Z</time>
      </trkpt>
      <trkpt lat="48.60206" lon="1.97383">
        <ele>118.86</ele>
        <time>2016-06-09T07:44:13Z</time>
      </trkpt>
      <trkpt lat="48.60226" lon="1.97404">
        <ele>115.5</ele>
        <time>2016-06-09T07:44:30Z</time>
      </trkpt>
      <trkpt lat="48.60229" lon="1.97407">
        <ele>115.01</ele>
        <time>2016-06-09T07:44:32Z</time>
      </trkpt>
      <trkpt lat="48.6024" lon="1.97418">
        <ele>113.09</ele>
        <time>2016-06-09T07:44:41Z</time>
      </trkpt>
      <trkpt lat="48.60242" lon="1.9742">
        <ele>112.13</ele>
        <time>2016-06-09T07:44:43Z</time>
      </trkpt>
      <trkpt lat="48.60248" lon="1.97426">
        <ele>111.17</ele>
        <time>2016-06-09T07:44:47Z</time>
      </trkpt>
      <trkpt lat="48.60253" lon="1.97431">
        <ele>109.73</ele>
        <time>2016-06-09T07:44:51Z</time>
      </trkpt>
      <trkpt lat="48.60265" lon="1.97443">
        <ele>107.32</ele>
        <time>2016-06-09T07:45:00Z</time>
      </trkpt>
      <trkpt lat="48.6028" lon="1.97458">
        <ele>103.96</ele>
        <time>2016-06-09T07:45:12Z</time>
      </trkpt>
      <trkpt lat="48.60299" lon="1.97476">
        <ele>101.08</ele>
        <time>2016-06-09T07:45:27Z</time>
      </trkpt>
      <trkpt lat="48.60304" lon="1.97481">
        <ele>100.6</ele>
        <time>2016-06-09T07:45:30Z</time>
      </trkpt>
      <trkpt lat="48.60308" lon="1.97483">
        <ele>100.11</ele>
        <time>2016-06-09T07:45:32Z</time>
      </trkpt>
      <trkpt lat="48.60332" lon="1.97511">
        <ele>98.67</ele>
        <time>2016-06-09T07:45:50Z</time>
      </trkpt>
      <trkpt lat="48.60339" lon="1.97519">
        <ele>98.19</ele>
        <time>2016-06-09T07:45:57Z</time>
      </trkpt>
      <trkpt lat="48.6036" lon="1.97536">
        <ele>97.23</ele>
        <time>2016-06-09T07:46:11Z</time>
      </trkpt>
      <trkpt lat="48.60383" lon="1.97551">
        <ele>96.75</ele>
        <time>2016-06-09T07:46:26Z</time>
      </trkpt>
      <trkpt lat="48.60404" lon="1.97568">
        <ele>96.27</ele>
        <time>2016-06-09T07:46:41Z</time>
      </trkpt>
      <trkpt lat="48.60422" lon="1.97589">
        <ele>95.79</ele>
        <time>2016-06-09T07:46:57Z</time>
      </trkpt>
      <trkpt lat="48.60442" lon="1.97607">
        <ele>95.31</ele>
        <time>2016-06-09T07:47:11Z</time>
      </trkpt>
      <trkpt lat="48.60445" lon="1.97609">
        <ele>95.31</ele>
        <time>2016-06-09T07:47:14Z</time>
      </trkpt>
      <trkpt lat="48.60451" lon="1.97613">
        <ele>95.31</ele>
        <time>2016-06-09T07:47:18Z</time>
      </trkpt>
      <trkpt lat="48.60457" lon="1.9762">
        <ele>95.31</ele>
        <time>2016-06-09T07:47:23Z</time>
      </trkpt>
      <trkpt lat="48.60474" lon="1.97636">
        <ele>94.83</ele>
        <time>2016-06-09T07:47:39Z</time>
      </trkpt>
      <trkpt lat="48.60488" lon="1.97653">
        <ele>94.35</ele>
        <time>2016-06-09T07:47:52Z</time>
      </trkpt>
      <trkpt lat="48.60495" lon="1.9766">
        <ele>94.35</ele>
        <time>2016-06-09T07:47:59Z</time>
      </trkpt>
      <trkpt lat="48.60503" lon="1.97668">
        <ele>93.87</ele>
        <time>2016-06-09T07:48:05Z</time>
      </trkpt>
      <trkpt lat="48.60522" lon="1.97688">
        <ele>92.42</ele>
        <time>2016-06-09T07:48:21Z</time>
      </trkpt>
      <trkpt lat="48.60528" lon="1.97694">
        <ele>91.94</ele>
        <time>2016-06-09T07:48:27Z</time>
      </trkpt>
      <trkpt lat="48.60537" lon="1.97699">
        <ele>91.94</ele>
        <time>2016-06-09T07:48:34Z</time>
      </trkpt>
      <trkpt lat="48.60549" lon="1.9771">
        <ele>91.46</ele>
        <time>2016-06-09T07:48:42Z</time>
      </trkpt>
      <trkpt lat="48.60565" lon="1.97726">
        <ele>90.98</ele>
        <time>2016-06-09T07:48:54Z</time>
      </trkpt>
      <trkpt lat="48.60581" lon="1.97747">
        <ele>90.5</ele>
        <time>2016-06-09T07:49:08Z</time>
      </trkpt>
      <trkpt lat="48.60596" lon="1.97764">
        <ele>90.5</ele>
        <time>2016-06-09T07:49:20Z</time>
      </trkpt>
      <trkpt lat="48.60609" lon="1.97776">
        <ele>90.02</ele>
        <time>2016-06-09T07:49:34Z</time>
      </trkpt>
      <trkpt lat="48.60609" lon="1.97777">
        <ele>90.02</ele>
        <time>2016-06-09T07:49:35Z</time>
      </trkpt>
      <trkpt lat="48.60626" lon="1.97797">
        <ele>89.54</ele>
        <time>2016-06-09T07:49:51Z</time>
      </trkpt>
      <trkpt lat="48.60647" lon="1.97818">
        <ele>89.54</ele>
        <time>2016-06-09T07:50:05Z</time>
      </trkpt>
      <trkpt lat="48.60665" lon="1.97833">
        <ele>89.54</ele>
        <time>2016-06-09T07:50:20Z</time>
      </trkpt>
      <trkpt lat="48.60668" lon="1.97837">
        <ele>89.54</ele>
        <time>2016-06-09T07:50:23Z</time>
      </trkpt>
      <trkpt lat="48.60683" lon="1.97851">
        <ele>90.02</ele>
        <time>2016-06-09T07:50:33Z</time>
      </trkpt>
      <trkpt lat="48.60699" lon="1.9787">
        <ele>89.54</ele>
        <time>2016-06-09T07:50:47Z</time>
      </trkpt>
      <trkpt lat="48.60711" lon="1.97879">
        <ele>90.02</ele>
        <time>2016-06-09T07:50:58Z</time>
      </trkpt>
      <trkpt lat="48.60729" lon="1.97895">
        <ele>90.02</ele>
        <time>2016-06-09T07:51:12Z</time>
      </trkpt>
      <trkpt lat="48.60738" lon="1.97905">
        <ele>90.02</ele>
        <time>2016-06-09T07:51:27Z</time>
      </trkpt>
      <trkpt lat="48.60744" lon="1.97915">
        <ele>90.02</ele>
        <time>2016-06-09T07:51:38Z</time>
      </trkpt>
      <trkpt lat="48.60759" lon="1.97932">
        <ele>90.02</ele>
        <time>2016-06-09T07:51:56Z</time>
      </trkpt>
      <trkpt lat="48.60766" lon="1.97938">
        <ele>89.54</ele>
        <time>2016-06-09T07:52:00Z</time>
      </trkpt>
      <trkpt lat="48.60778" lon="1.97948">
        <ele>89.06</ele>
        <time>2016-06-09T07:52:14Z</time>
      </trkpt>
      <trkpt lat="48.60796" lon="1.97955">
        <ele>89.54</ele>
        <time>2016-06-09T07:52:28Z</time>
      </trkpt>
      <trkpt lat="48.608" lon="1.97968">
        <ele>89.54</ele>
        <time>2016-06-09T07:52:41Z</time>
      </trkpt>
      <trkpt lat="48.60799" lon="1.97993">
        <ele>89.54</ele>
        <time>2016-06-09T07:52:55Z</time>
      </trkpt>
      <trkpt lat="48.60798" lon="1.98005">
        <ele>89.54</ele>
        <time>2016-06-09T07:53:01Z</time>
      </trkpt>
      <trkpt lat="48.60794" lon="1.98031">
        <ele>89.54</ele>
        <time>2016-06-09T07:53:16Z</time>
      </trkpt>
      <trkpt lat="48.60788" lon="1.9806">
        <ele>90.02</ele>
        <time>2016-06-09T07:53:30Z</time>
      </trkpt>
      <trkpt lat="48.60785" lon="1.98074">
        <ele>90.02</ele>
        <time>2016-06-09T07:53:37Z</time>
      </trkpt>
      <trkpt lat="48.6078" lon="1.98086">
        <ele>90.02</ele>
        <time>2016-06-09T07:53:43Z</time>
      </trkpt>
      <trkpt lat="48.60776" lon="1.98112">
        <ele>90.02</ele>
        <time>2016-06-09T07:53:57Z</time>
      </trkpt>
      <trkpt lat="48.6077" lon="1.98138">
        <ele>90.02</ele>
        <time>2016-06-09T07:54:11Z</time>
      </trkpt>
      <trkpt lat="48.60768" lon="1.98143">
        <ele>89.54</ele>
        <time>2016-06-09T07:54:14Z</time>
      </trkpt>
      <trkpt lat="48.60759" lon="1.98165">
        <ele>89.54</ele>
        <time>2016-06-09T07:54:28Z</time>
      </trkpt>
      <trkpt lat="48.60757" lon="1.9817">
        <ele>89.54</ele>
        <time>2016-06-09T07:54:31Z</time>
      </trkpt>
      <trkpt lat="48.60754" lon="1.98178">
        <ele>89.06</ele>
        <time>2016-06-09T07:54:36Z</time>
      </trkpt>
      <trkpt lat="48.60748" lon="1.98189">
        <ele>88.58</ele>
        <time>2016-06-09T07:54:43Z</time>
      </trkpt>
      <trkpt lat="48.60745" lon="1.98207">
        <ele>88.58</ele>
        <time>2016-06-09T07:54:54Z</time>
      </trkpt>
      <trkpt lat="48.6074" lon="1.98221">
        <ele>88.58</ele>
        <time>2016-06-09T07:55:06Z</time>
      </trkpt>
      <trkpt lat="48.6073" lon="1.98238">
        <ele>88.58</ele>
        <time>2016-06-09T07:55:19Z</time>
      </trkpt>
      <trkpt lat="48.60724" lon="1.98257">
        <ele>88.58</ele>
        <time>2016-06-09T07:55:32Z</time>
      </trkpt>
      <trkpt lat="48.60717" lon="1.98265">
        <ele>89.06</ele>
        <time>2016-06-09T07:55:40Z</time>
      </trkpt>
      <trkpt lat="48.60704" lon="1.98274">
        <ele>89.06</ele>
        <time>2016-06-09T07:55:52Z</time>
      </trkpt>
      <trkpt lat="48.60695" lon="1.9828">
        <ele>89.06</ele>
        <time>2016-06-09T07:56:06Z</time>
      </trkpt>
      <trkpt lat="48.60689" lon="1.98284">
        <ele>89.06</ele>
        <time>2016-06-09T07:56:21Z</time>
      </trkpt>
      <trkpt lat="48.60681" lon="1.98291">
        <ele>89.06</ele>
        <time>2016-06-09T07:56:33Z</time>
      </trkpt>
      <trkpt lat="48.60663" lon="1.98301">
        <ele>89.54</ele>
        <time>2016-06-09T07:56:44Z</time>
      </trkpt>
      <trkpt lat="48.6064" lon="1.98313">
        <ele>90.5</ele>
        <time>2016-06-09T07:56:59Z</time>
      </trkpt>
      <trkpt lat="48.60618" lon="1.9832">
        <ele>90.98</ele>
        <time>2016-06-09T07:57:10Z</time>
      </trkpt>
      <trkpt lat="48.60609" lon="1.98323">
        <ele>90.98</ele>
        <time>2016-06-09T07:57:14Z</time>
      </trkpt>
      <trkpt lat="48.60599" lon="1.98325">
        <ele>90.98</ele>
        <time>2016-06-09T07:57:20Z</time>
      </trkpt>
      <trkpt lat="48.60589" lon="1.98333">
        <ele>90.98</ele>
        <time>2016-06-09T07:57:26Z</time>
      </trkpt>
      <trkpt lat="48.60573" lon="1.98342">
        <ele>90.5</ele>
        <time>2016-06-09T07:57:37Z</time>
      </trkpt>
      <trkpt lat="48.60547" lon="1.98353">
        <ele>90.02</ele>
        <time>2016-06-09T07:57:53Z</time>
      </trkpt>
      <trkpt lat="48.60532" lon="1.98358">
        <ele>89.54</ele>
        <time>2016-06-09T07:58:10Z</time>
      </trkpt>
      <trkpt lat="48.60516" lon="1.98359">
        <ele>88.58</ele>
        <time>2016-06-09T07:58:22Z</time>
      </trkpt>
      <trkpt lat="48.60513" lon="1.9836">
        <ele>88.58</ele>
        <time>2016-06-09T07:58:26Z</time>
      </trkpt>
      <trkpt lat="48.60492" lon="1.98368">
        <ele>88.58</ele>
        <time>2016-06-09T07:58:40Z</time>
      </trkpt>
      <trkpt lat="48.60479" lon="1.98369">
        <ele>88.1</ele>
        <time>2016-06-09T07:58:56Z</time>
      </trkpt>
      <trkpt lat="48.60474" lon="1.9837">
        <ele>88.58</ele>
        <time>2016-06-09T07:59:00Z</time>
      </trkpt>
      <trkpt lat="48.60454" lon="1.98374">
        <ele>88.1</ele>
        <time>2016-06-09T07:59:14Z</time>
      </trkpt>
      <trkpt lat="48.60449" lon="1.98375">
        <ele>88.58</ele>
        <time>2016-06-09T07:59:19Z</time>
      </trkpt>
      <trkpt lat="48.60433" lon="1.98381">
        <ele>88.58</ele>
        <time>2016-06-09T07:59:29Z</time>
      </trkpt>
      <trkpt lat="48.6042" lon="1.98383">
        <ele>89.06</ele>
        <time>2016-06-09T07:59:39Z</time>
      </trkpt>
      <trkpt lat="48.60401" lon="1.98388">
        <ele>89.54</ele>
        <time>2016-06-09T07:59:51Z</time>
      </trkpt>
      <trkpt lat="48.6038" lon="1.98401">
        <ele>90.5</ele>
        <time>2016-06-09T08:00:03Z</time>
      </trkpt>
      <trkpt lat="48.60357" lon="1.98417">
        <ele>91.94</ele>
        <time>2016-06-09T08:00:17Z</time>
      </trkpt>
      <trkpt lat="48.60348" lon="1.98426">
        <ele>91.94</ele>
        <time>2016-06-09T08:00:24Z</time>
      </trkpt>
      <trkpt lat="48.60344" lon="1.98429">
        <ele>92.42</ele>
        <time>2016-06-09T08:00:26Z</time>
      </trkpt>
      <trkpt lat="48.60324" lon="1.98449">
        <ele>92.42</ele>
        <time>2016-06-09T08:00:38Z</time>
      </trkpt>
      <trkpt lat="48.6031" lon="1.98466">
        <ele>92.42</ele>
        <time>2016-06-09T08:00:49Z</time>
      </trkpt>
      <trkpt lat="48.603" lon="1.98484">
        <ele>91.94</ele>
        <time>2016-06-09T08:01:00Z</time>
      </trkpt>
      <trkpt lat="48.6029" lon="1.98497">
        <ele>91.46</ele>
        <time>2016-06-09T08:01:12Z</time>
      </trkpt>
      <trkpt lat="48.60289" lon="1.98498">
        <ele>91.46</ele>
        <time>2016-06-09T08:01:13Z</time>
      </trkpt>
      <trkpt lat="48.60283" lon="1.98508">
        <ele>90.98</ele>
        <time>2016-06-09T08:01:22Z</time>
      </trkpt>
      <trkpt lat="48.60281" lon="1.98513">
        <ele>90.98</ele>
        <time>2016-06-09T08:01:24Z</time>
      </trkpt>
      <trkpt lat="48.60266" lon="1.98534">
        <ele>90.98</ele>
        <time>2016-06-09T08:01:39Z</time>
      </trkpt>
      <trkpt lat="48.60256" lon="1.98547">
        <ele>90.98</ele>
        <time>2016-06-09T08:01:52Z</time>
      </trkpt>
      <trkpt lat="48.60249" lon="1.98556">
        <ele>90.98</ele>
        <time>2016-06-09T08:01:59Z</time>
      </trkpt>
      <trkpt lat="48.60241" lon="1.98567">
        <ele>91.46</ele>
        <time>2016-06-09T08:02:07Z</time>
      </trkpt>
      <trkpt lat="48.60239" lon="1.9857">
        <ele>91.46</ele>
        <time>2016-06-09T08:02:09Z</time>
      </trkpt>
      <trkpt lat="48.60234" lon="1.98576">
        <ele>91.94</ele>
        <time>2016-06-09T08:02:15Z</time>
      </trkpt>
      <trkpt lat="48.60223" lon="1.98586">
        <ele>92.42</ele>
        <time>2016-06-09T08:02:30Z</time>
      </trkpt>
      <trkpt lat="48.60202" lon="1.98608">
        <ele>92.9</ele>
        <time>2016-06-09T08:02:47Z</time>
      </trkpt>
      <trkpt lat="48.60184" lon="1.98625">
        <ele>93.39</ele>
        <time>2016-06-09T08:03:00Z</time>
      </trkpt>
      <trkpt lat="48.60165" lon="1.98642">
        <ele>94.35</ele>
        <time>2016-06-09T08:03:15Z</time>
      </trkpt>
      <trkpt lat="48.60163" lon="1.98644">
        <ele>94.35</ele>
        <time>2016-06-09T08:03:16Z</time>
      </trkpt>
      <trkpt lat="48.60158" lon="1.98649">
        <ele>94.35</ele>
        <time>2016-06-09T08:03:20Z</time>
      </trkpt>
      <trkpt lat="48.60143" lon="1.98668">
        <ele>94.83</ele>
        <time>2016-06-09T08:03:34Z</time>
      </trkpt>
      <trkpt lat="48.60126" lon="1.98685">
        <ele>94.35</ele>
        <time>2016-06-09T08:03:47Z</time>
      </trkpt>
      <trkpt lat="48.6012" lon="1.98689">
        <ele>94.35</ele>
        <time>2016-06-09T08:04:09Z</time>
      </trkpt>
      <trkpt lat="48.60117" lon="1.9869">
        <ele>94.35</ele>
        <time>2016-06-09T08:04:33Z</time>
      </trkpt>
      <trkpt lat="48.60113" lon="1.98693">
        <ele>93.87</ele>
        <time>2016-06-09T08:05:00Z</time>
      </trkpt>
      <trkpt lat="48.60114" lon="1.98691">
        <ele>93.87</ele>
        <time>2016-06-09T08:05:29Z</time>
      </trkpt>
      <trkpt lat="48.60113" lon="1.9869">
        <ele>93.87</ele>
        <time>2016-06-09T08:05:52Z</time>
      </trkpt>
      <trkpt lat="48.60113" lon="1.9869">
        <ele>93.87</ele>
        <time>2016-06-09T08:06:18Z</time>
      </trkpt>
      <trkpt lat="48.60112" lon="1.9869">
        <ele>93.87</ele>
        <time>2016-06-09T08:06:33Z</time>
      </trkpt>
      <trkpt lat="48.6011" lon="1.98692">
        <ele>93.87</ele>
        <time>2016-06-09T08:06:38Z</time>
      </trkpt>
      <trkpt lat="48.60099" lon="1.98704">
        <ele>93.39</ele>
        <time>2016-06-09T08:06:49Z</time>
      </trkpt>
      <trkpt lat="48.60096" lon="1.98706">
        <ele>93.39</ele>
        <time>2016-06-09T08:06:51Z</time>
      </trkpt>
      <trkpt lat="48.60077" lon="1.98723">
        <ele>92.42</ele>
        <time>2016-06-09T08:07:07Z</time>
      </trkpt>
      <trkpt lat="48.60074" lon="1.98725">
        <ele>92.42</ele>
        <time>2016-06-09T08:07:09Z</time>
      </trkpt>
      <trkpt lat="48.60055" lon="1.98736">
        <ele>91.94</ele>
        <time>2016-06-09T08:07:22Z</time>
      </trkpt>
      <trkpt lat="48.60041" lon="1.98741">
        <ele>91.46</ele>
        <time>2016-06-09T08:07:34Z</time>
      </trkpt>
      <trkpt lat="48.60026" lon="1.98748">
        <ele>91.46</ele>
        <time>2016-06-09T08:07:47Z</time>
      </trkpt>
      <trkpt lat="48.60008" lon="1.98753">
        <ele>91.46</ele>
        <time>2016-06-09T08:08:05Z</time>
      </trkpt>
      <trkpt lat="48.59979" lon="1.98765">
        <ele>92.42</ele>
        <time>2016-06-09T08:08:22Z</time>
      </trkpt>
      <trkpt lat="48.59958" lon="1.9877">
        <ele>92.42</ele>
        <time>2016-06-09T08:08:37Z</time>
      </trkpt>
      <trkpt lat="48.5994" lon="1.98772">
        <ele>92.9</ele>
        <time>2016-06-09T08:08:53Z</time>
      </trkpt>
      <trkpt lat="48.5992" lon="1.98778">
        <ele>93.39</ele>
        <time>2016-06-09T08:09:08Z</time>
      </trkpt>
      <trkpt lat="48.59894" lon="1.98784">
        <ele>93.87</ele>
        <time>2016-06-09T08:09:23Z</time>
      </trkpt>
      <trkpt lat="48.59871" lon="1.98788">
        <ele>94.35</ele>
        <time>2016-06-09T08:09:37Z</time>
      </trkpt>
      <trkpt lat="48.59856" lon="1.98791">
        <ele>94.83</ele>
        <time>2016-06-09T08:09:50Z</time>
      </trkpt>
      <trkpt lat="48.59838" lon="1.9879">
        <ele>95.31</ele>
        <time>2016-06-09T08:10:01Z</time>
      </trkpt>
      <trkpt lat="48.59821" lon="1.9879">
        <ele>95.79</ele>
        <time>2016-06-09T08:10:13Z</time>
      </trkpt>
      <trkpt lat="48.598" lon="1.98794">
        <ele>96.27</ele>
        <time>2016-06-09T08:10:28Z</time>
      </trkpt>
      <trkpt lat="48.59789" lon="1.98795">
        <ele>96.75</ele>
        <time>2016-06-09T08:10:36Z</time>
      </trkpt>
      <trkpt lat="48.59765" lon="1.98795">
        <ele>97.23</ele>
        <time>2016-06-09T08:10:51Z</time>
      </trkpt>
      <trkpt lat="48.59753" lon="1.98799">
        <ele>97.71</ele>
        <time>2016-06-09T08:11:00Z</time>
      </trkpt>
      <trkpt lat="48.59731" lon="1.98798">
        <ele>97.71</ele>
        <time>2016-06-09T08:11:15Z</time>
      </trkpt>
      <trkpt lat="48.59712" lon="1.98798">
        <ele>98.67</ele>
        <time>2016-06-09T08:11:30Z</time>
      </trkpt>
      <trkpt lat="48.59699" lon="1.98798">
        <ele>99.15</ele>
        <time>2016-06-09T08:11:42Z</time>
      </trkpt>
      <trkpt lat="48.59685" lon="1.98797">
        <ele>99.63</ele>
        <time>2016-06-09T08:11:54Z</time>
      </trkpt>
      <trkpt lat="48.59673" lon="1.98798">
        <ele>100.11</ele>
        <time>2016-06-09T08:12:07Z</time>
      </trkpt>
      <trkpt lat="48.59657" lon="1.98797">
        <ele>101.08</ele>
        <time>2016-06-09T08:12:23Z</time>
      </trkpt>
      <trkpt lat="48.59648" lon="1.98796">
        <ele>102.04</ele>
        <time>2016-06-09T08:12:38Z</time>
      </trkpt>
      <trkpt lat="48.59633" lon="1.98795">
        <ele>102.52</ele>
        <time>2016-06-09T08:12:51Z</time>
      </trkpt>
      <trkpt lat="48.59626" lon="1.98797">
        <ele>103</ele>
        <time>2016-06-09T08:12:55Z</time>
      </trkpt>
      <trkpt lat="48.59612" lon="1.98798">
        <ele>103</ele>
        <time>2016-06-09T08:13:03Z</time>
      </trkpt>
      <trkpt lat="48.59584" lon="1.98806">
        <ele>102.52</ele>
        <time>2016-06-09T08:13:19Z</time>
      </trkpt>
      <trkpt lat="48.59568" lon="1.98806">
        <ele>102.04</ele>
        <time>2016-06-09T08:13:34Z</time>
      </trkpt>
      <trkpt lat="48.5956" lon="1.98806">
        <ele>102.04</ele>
        <time>2016-06-09T08:13:54Z</time>
      </trkpt>
      <trkpt lat="48.59558" lon="1.98805">
        <ele>102.04</ele>
        <time>2016-06-09T08:14:15Z</time>
      </trkpt>
      <trkpt lat="48.59555" lon="1.98804">
        <ele>101.56</ele>
        <time>2016-06-09T08:14:36Z</time>
      </trkpt>
      <trkpt lat="48.59552" lon="1.98804">
        <ele>101.56</ele>
        <time>2016-06-09T08:15:02Z</time>
      </trkpt>
      <trkpt lat="48.59549" lon="1.98801">
        <ele>101.56</ele>
        <time>2016-06-09T08:15:25Z</time>
      </trkpt>
      <trkpt lat="48.59549" lon="1.98798">
        <ele>102.04</ele>
        <time>2016-06-09T08:15:39Z</time>
      </trkpt>
      <trkpt lat="48.59551" lon="1.98794">
        <ele>102.04</ele>
        <time>2016-06-09T08:15:53Z</time>
      </trkpt>
      <trkpt lat="48.59554" lon="1.9879">
        <ele>100.11</ele>
        <time>2016-06-09T08:16:11Z</time>
      </trkpt>
      <trkpt lat="48.59568" lon="1.98763">
        <ele>101.56</ele>
        <time>2016-06-09T08:16:28Z</time>
      </trkpt>
      <trkpt lat="48.5958" lon="1.98742">
        <ele>102.04</ele>
        <time>2016-06-09T08:16:42Z</time>
      </trkpt>
      <trkpt lat="48.59587" lon="1.98723">
        <ele>103</ele>
        <time>2016-06-09T08:16:57Z</time>
      </trkpt>
      <trkpt lat="48.59609" lon="1.98714">
        <ele>102.52</ele>
        <time>2016-06-09T08:17:14Z</time>
      </trkpt>
      <trkpt lat="48.59623" lon="1.9871">
        <ele>103</ele>
        <time>2016-06-09T08:17:27Z</time>
      </trkpt>
      <trkpt lat="48.59635" lon="1.98699">
        <ele>105.88</ele>
        <time>2016-06-09T08:17:42Z</time>
      </trkpt>
      <trkpt lat="48.5964" lon="1.98692">
        <ele>106.84</ele>
        <time>2016-06-09T08:17:47Z</time>
      </trkpt>
      <trkpt lat="48.59656" lon="1.98664">
        <ele>109.73</ele>
        <time>2016-06-09T08:17:58Z</time>
      </trkpt>
      <trkpt lat="48.59662" lon="1.98637">
        <ele>113.09</ele>
        <time>2016-06-09T08:18:10Z</time>
      </trkpt>
      <trkpt lat="48.5967" lon="1.98619">
        <ele>116.46</ele>
        <time>2016-06-09T08:18:20Z</time>
      </trkpt>
      <trkpt lat="48.59671" lon="1.98616">
        <ele>116.46</ele>
        <time>2016-06-09T08:18:21Z</time>
      </trkpt>
      <trkpt lat="48.59675" lon="1.98591">
        <ele>120.3</ele>
        <time>2016-06-09T08:18:33Z</time>
      </trkpt>
      <trkpt lat="48.59686" lon="1.98567">
        <ele>121.26</ele>
        <time>2016-06-09T08:18:50Z</time>
      </trkpt>
      <trkpt lat="48.5969" lon="1.98564">
        <ele>121.26</ele>
        <time>2016-06-09T08:19:05Z</time>
      </trkpt>
      <trkpt lat="48.59698" lon="1.9856">
        <ele>120.78</ele>
        <time>2016-06-09T08:19:21Z</time>
      </trkpt>
      <trkpt lat="48.59707" lon="1.98556">
        <ele>120.78</ele>
        <time>2016-06-09T08:19:34Z</time>
      </trkpt>
      <trkpt lat="48.59713" lon="1.98552">
        <ele>120.3</ele>
        <time>2016-06-09T08:19:58Z</time>
      </trkpt>
      <trkpt lat="48.5972" lon="1.98549">
        <ele>119.82</ele>
        <time>2016-06-09T08:20:19Z</time>
      </trkpt>
      <trkpt lat="48.59727" lon="1.98544">
        <ele>118.38</ele>
        <time>2016-06-09T08:20:32Z</time>
      </trkpt>
      <trkpt lat="48.59732" lon="1.98542">
        <ele>116.94</ele>
        <time>2016-06-09T08:20:47Z</time>
      </trkpt>
      <trkpt lat="48.59741" lon="1.98538">
        <ele>113.57</ele>
        <time>2016-06-09T08:21:06Z</time>
      </trkpt>
      <trkpt lat="48.59755" lon="1.98538">
        <ele>110.21</ele>
        <time>2016-06-09T08:21:19Z</time>
      </trkpt>
      <trkpt lat="48.59768" lon="1.98538">
        <ele>107.32</ele>
        <time>2016-06-09T08:21:32Z</time>
      </trkpt>
      <trkpt lat="48.59781" lon="1.98527">
        <ele>103.96</ele>
        <time>2016-06-09T08:21:47Z</time>
      </trkpt>
      <trkpt lat="48.59798" lon="1.98503">
        <ele>102.04</ele>
        <time>2016-06-09T08:22:01Z</time>
      </trkpt>
      <trkpt lat="48.59805" lon="1.98486">
        <ele>101.56</ele>
        <time>2016-06-09T08:22:12Z</time>
      </trkpt>
      <trkpt lat="48.5981" lon="1.9845">
        <ele>100.6</ele>
        <time>2016-06-09T08:22:26Z</time>
      </trkpt>
      <trkpt lat="48.59816" lon="1.9844">
        <ele>98.67</ele>
        <time>2016-06-09T08:22:38Z</time>
      </trkpt>
      <trkpt lat="48.59825" lon="1.98407">
        <ele>99.15</ele>
        <time>2016-06-09T08:22:53Z</time>
      </trkpt>
      <trkpt lat="48.59838" lon="1.98376">
        <ele>100.11</ele>
        <time>2016-06-09T08:23:09Z</time>
      </trkpt>
      <trkpt lat="48.59853" lon="1.98349">
        <ele>100.11</ele>
        <time>2016-06-09T08:23:23Z</time>
      </trkpt>
      <trkpt lat="48.59868" lon="1.98326">
        <ele>99.15</ele>
        <time>2016-06-09T08:23:39Z</time>
      </trkpt>
      <trkpt lat="48.59879" lon="1.9831">
        <ele>100.11</ele>
        <time>2016-06-09T08:23:50Z</time>
      </trkpt>
      <trkpt lat="48.59874" lon="1.98285">
        <ele>101.08</ele>
        <time>2016-06-09T08:24:06Z</time>
      </trkpt>
      <trkpt lat="48.59856" lon="1.98273">
        <ele>103</ele>
        <time>2016-06-09T08:24:21Z</time>
      </trkpt>
      <trkpt lat="48.59855" lon="1.98272">
        <ele>103.48</ele>
        <time>2016-06-09T08:24:22Z</time>
      </trkpt>
      <trkpt lat="48.59835" lon="1.98262">
        <ele>105.4</ele>
        <time>2016-06-09T08:24:36Z</time>
      </trkpt>
      <trkpt lat="48.59835" lon="1.98262">
        <ele>106.36</ele>
        <time>2016-06-09T08:24:37Z</time>
      </trkpt>
      <trkpt lat="48.59826" lon="1.98255">
        <ele>106.84</ele>
        <time>2016-06-09T08:24:43Z</time>
      </trkpt>
      <trkpt lat="48.5982" lon="1.98252">
        <ele>107.81</ele>
        <time>2016-06-09T08:24:48Z</time>
      </trkpt>
      <trkpt lat="48.59802" lon="1.98245">
        <ele>110.69</ele>
        <time>2016-06-09T08:25:02Z</time>
      </trkpt>
      <trkpt lat="48.59794" lon="1.98245">
        <ele>113.57</ele>
        <time>2016-06-09T08:25:16Z</time>
      </trkpt>
      <trkpt lat="48.59792" lon="1.98243">
        <ele>114.53</ele>
        <time>2016-06-09T08:25:21Z</time>
      </trkpt>
      <trkpt lat="48.59777" lon="1.98231">
        <ele>115.98</ele>
        <time>2016-06-09T08:25:35Z</time>
      </trkpt>
      <trkpt lat="48.59761" lon="1.98221">
        <ele>117.42</ele>
        <time>2016-06-09T08:25:46Z</time>
      </trkpt>
      <trkpt lat="48.59738" lon="1.98209">
        <ele>119.82</ele>
        <time>2016-06-09T08:26:02Z</time>
      </trkpt>
      <trkpt lat="48.59731" lon="1.98204">
        <ele>120.78</ele>
        <time>2016-06-09T08:26:10Z</time>
      </trkpt>
      <trkpt lat="48.59713" lon="1.98195">
        <ele>122.71</ele>
        <time>2016-06-09T08:26:25Z</time>
      </trkpt>
      <trkpt lat="48.59708" lon="1.98193">
        <ele>123.19</ele>
        <time>2016-06-09T08:26:30Z</time>
      </trkpt>
      <trkpt lat="48.59694" lon="1.9818">
        <ele>124.63</ele>
        <time>2016-06-09T08:26:45Z</time>
      </trkpt>
      <trkpt lat="48.59681" lon="1.98164">
        <ele>125.59</ele>
        <time>2016-06-09T08:26:57Z</time>
      </trkpt>
      <trkpt lat="48.59669" lon="1.9815">
        <ele>126.55</ele>
        <time>2016-06-09T08:27:10Z</time>
      </trkpt>
      <trkpt lat="48.59666" lon="1.98144">
        <ele>127.03</ele>
        <time>2016-06-09T08:27:14Z</time>
      </trkpt>
      <trkpt lat="48.59654" lon="1.98127">
        <ele>127.03</ele>
        <time>2016-06-09T08:27:29Z</time>
      </trkpt>
      <trkpt lat="48.59646" lon="1.9812">
        <ele>127.51</ele>
        <time>2016-06-09T08:27:35Z</time>
      </trkpt>
      <trkpt lat="48.59627" lon="1.98098">
        <ele>127.99</ele>
        <time>2016-06-09T08:27:50Z</time>
      </trkpt>
      <trkpt lat="48.59614" lon="1.98074">
        <ele>128.95</ele>
        <time>2016-06-09T08:28:03Z</time>
      </trkpt>
      <trkpt lat="48.59602" lon="1.98059">
        <ele>130.4</ele>
        <time>2016-06-09T08:28:16Z</time>
      </trkpt>
      <trkpt lat="48.59593" lon="1.9805">
        <ele>130.88</ele>
        <time>2016-06-09T08:28:29Z</time>
      </trkpt>
      <trkpt lat="48.5958" lon="1.98041">
        <ele>131.36</ele>
        <time>2016-06-09T08:28:36Z</time>
      </trkpt>
      <trkpt lat="48.59557" lon="1.98028">
        <ele>132.8</ele>
        <time>2016-06-09T08:28:53Z</time>
      </trkpt>
      <trkpt lat="48.59554" lon="1.98025">
        <ele>132.8</ele>
        <time>2016-06-09T08:28:56Z</time>
      </trkpt>
      <trkpt lat="48.59539" lon="1.98013">
        <ele>133.28</ele>
        <time>2016-06-09T08:29:10Z</time>
      </trkpt>
      <trkpt lat="48.59532" lon="1.98007">
        <ele>133.28</ele>
        <time>2016-06-09T08:29:16Z</time>
      </trkpt>
      <trkpt lat="48.59523" lon="1.97996">
        <ele>133.76</ele>
        <time>2016-06-09T08:29:32Z</time>
      </trkpt>
      <trkpt lat="48.59518" lon="1.97992">
        <ele>134.24</ele>
        <time>2016-06-09T08:29:57Z</time>
      </trkpt>
      <trkpt lat="48.59518" lon="1.97994">
        <ele>134.72</ele>
        <time>2016-06-09T08:30:26Z</time>
      </trkpt>
      <trkpt lat="48.59518" lon="1.97997">
        <ele>134.72</ele>
        <time>2016-06-09T08:30:48Z</time>
      </trkpt>
      <trkpt lat="48.59514" lon="1.97993">
        <ele>135.2</ele>
        <time>2016-06-09T08:31:11Z</time>
      </trkpt>
      <trkpt lat="48.59513" lon="1.97992">
        <ele>135.2</ele>
        <time>2016-06-09T08:31:27Z</time>
      </trkpt>
      <trkpt lat="48.59512" lon="1.9799">
        <ele>135.2</ele>
        <time>2016-06-09T08:31:53Z</time>
      </trkpt>
      <trkpt lat="48.59512" lon="1.9799">
        <ele>135.68</ele>
        <time>2016-06-09T08:32:13Z</time>
      </trkpt>
      <trkpt lat="48.59512" lon="1.9799">
        <ele>135.68</ele>
        <time>2016-06-09T08:32:31Z</time>
      </trkpt>
      <trkpt lat="48.59509" lon="1.97989">
        <ele>136.16</ele>
        <time>2016-06-09T08:32:51Z</time>
      </trkpt>
      <trkpt lat="48.59508" lon="1.9799">
        <ele>136.16</ele>
        <time>2016-06-09T08:32:53Z</time>
      </trkpt>
      <trkpt lat="48.59501" lon="1.97993">
        <ele>136.64</ele>
        <time>2016-06-09T08:32:57Z</time>
      </trkpt>
      <trkpt lat="48.59493" lon="1.97998">
        <ele>135.68</ele>
        <time>2016-06-09T08:33:02Z</time>
      </trkpt>
      <trkpt lat="48.59486" lon="1.98005">
        <ele>136.16</ele>
        <time>2016-06-09T08:33:07Z</time>
      </trkpt>
      <trkpt lat="48.59478" lon="1.98015">
        <ele>136.16</ele>
        <time>2016-06-09T08:33:16Z</time>
      </trkpt>
      <trkpt lat="48.59464" lon="1.98033">
        <ele>136.64</ele>
        <time>2016-06-09T08:33:30Z</time>
      </trkpt>
      <trkpt lat="48.5945" lon="1.98052">
        <ele>136.64</ele>
        <time>2016-06-09T08:33:44Z</time>
      </trkpt>
      <trkpt lat="48.59447" lon="1.98057">
        <ele>136.64</ele>
        <time>2016-06-09T08:33:47Z</time>
      </trkpt>
      <trkpt lat="48.59443" lon="1.98063">
        <ele>136.64</ele>
        <time>2016-06-09T08:33:51Z</time>
      </trkpt>
      <trkpt lat="48.59439" lon="1.98066">
        <ele>136.64</ele>
        <time>2016-06-09T08:33:54Z</time>
      </trkpt>
      <trkpt lat="48.59425" lon="1.98083">
        <ele>136.16</ele>
        <time>2016-06-09T08:34:07Z</time>
      </trkpt>
      <trkpt lat="48.5942" lon="1.98089">
        <ele>135.68</ele>
        <time>2016-06-09T08:34:12Z</time>
      </trkpt>
      <trkpt lat="48.59405" lon="1.98087">
        <ele>136.64</ele>
        <time>2016-06-09T08:34:24Z</time>
      </trkpt>
      <trkpt lat="48.59393" lon="1.98077">
        <ele>136.16</ele>
        <time>2016-06-09T08:34:36Z</time>
      </trkpt>
      <trkpt lat="48.5938" lon="1.98061">
        <ele>136.64</ele>
        <time>2016-06-09T08:34:50Z</time>
      </trkpt>
      <trkpt lat="48.59372" lon="1.98051">
        <ele>136.64</ele>
        <time>2016-06-09T08:34:56Z</time>
      </trkpt>
      <trkpt lat="48.59365" lon="1.98042">
        <ele>136.64</ele>
        <time>2016-06-09T08:35:02Z</time>
      </trkpt>
      <trkpt lat="48.59354" lon="1.98021">
        <ele>136.64</ele>
        <time>2016-06-09T08:35:19Z</time>
      </trkpt>
      <trkpt lat="48.59341" lon="1.9801">
        <ele>136.16</ele>
        <time>2016-06-09T08:35:34Z</time>
      </trkpt>
      <trkpt lat="48.5934" lon="1.9801">
        <ele>136.64</ele>
        <time>2016-06-09T08:35:58Z</time>
      </trkpt>
      <trkpt lat="48.59339" lon="1.98009">
        <ele>137.13</ele>
        <time>2016-06-09T08:36:24Z</time>
      </trkpt>
      <trkpt lat="48.59339" lon="1.98009">
        <ele>137.13</ele>
        <time>2016-06-09T08:36:50Z</time>
      </trkpt>
      <trkpt lat="48.59339" lon="1.9801">
        <ele>137.61</ele>
        <time>2016-06-09T08:37:16Z</time>
      </trkpt>
      <trkpt lat="48.59341" lon="1.98011">
        <ele>137.13</ele>
        <time>2016-06-09T08:37:35Z</time>
      </trkpt>
      <trkpt lat="48.59351" lon="1.9801">
        <ele>137.61</ele>
        <time>2016-06-09T08:37:50Z</time>
      </trkpt>
      <trkpt lat="48.59358" lon="1.9799">
        <ele>138.57</ele>
        <time>2016-06-09T08:38:05Z</time>
      </trkpt>
      <trkpt lat="48.59359" lon="1.97988">
        <ele>138.09</ele>
        <time>2016-06-09T08:38:06Z</time>
      </trkpt>
      <trkpt lat="48.59361" lon="1.9798">
        <ele>139.05</ele>
        <time>2016-06-09T08:38:10Z</time>
      </trkpt>
      <trkpt lat="48.59363" lon="1.97959">
        <ele>139.05</ele>
        <time>2016-06-09T08:38:19Z</time>
      </trkpt>
      <trkpt lat="48.59368" lon="1.97939">
        <ele>139.05</ele>
        <time>2016-06-09T08:38:31Z</time>
      </trkpt>
      <trkpt lat="48.59368" lon="1.97917">
        <ele>138.57</ele>
        <time>2016-06-09T08:38:44Z</time>
      </trkpt>
      <trkpt lat="48.59368" lon="1.97909">
        <ele>139.53</ele>
        <time>2016-06-09T08:38:48Z</time>
      </trkpt>
      <trkpt lat="48.59363" lon="1.97883">
        <ele>139.05</ele>
        <time>2016-06-09T08:39:02Z</time>
      </trkpt>
      <trkpt lat="48.59359" lon="1.97865">
        <ele>139.53</ele>
        <time>2016-06-09T08:39:12Z</time>
      </trkpt>
      <trkpt lat="48.59351" lon="1.97842">
        <ele>139.05</ele>
        <time>2016-06-09T08:39:26Z</time>
      </trkpt>
      <trkpt lat="48.59349" lon="1.97836">
        <ele>140.01</ele>
        <time>2016-06-09T08:39:30Z</time>
      </trkpt>
      <trkpt lat="48.59346" lon="1.97822">
        <ele>139.05</ele>
        <time>2016-06-09T08:39:38Z</time>
      </trkpt>
      <trkpt lat="48.5934" lon="1.97806">
        <ele>139.05</ele>
        <time>2016-06-09T08:39:48Z</time>
      </trkpt>
      <trkpt lat="48.59334" lon="1.9778">
        <ele>139.53</ele>
        <time>2016-06-09T08:40:04Z</time>
      </trkpt>
      <trkpt lat="48.59336" lon="1.97773">
        <ele>139.53</ele>
        <time>2016-06-09T08:40:08Z</time>
      </trkpt>
      <trkpt lat="48.5934" lon="1.97767">
        <ele>139.53</ele>
        <time>2016-06-09T08:40:13Z</time>
      </trkpt>
      <trkpt lat="48.59351" lon="1.97732">
        <ele>140.01</ele>
        <time>2016-06-09T08:40:33Z</time>
      </trkpt>
      <trkpt lat="48.59358" lon="1.97719">
        <ele>139.53</ele>
        <time>2016-06-09T08:40:40Z</time>
      </trkpt>
      <trkpt lat="48.59369" lon="1.97709">
        <ele>140.01</ele>
        <time>2016-06-09T08:40:51Z</time>
      </trkpt>
      <trkpt lat="48.59387" lon="1.97715">
        <ele>140.01</ele>
        <time>2016-06-09T08:41:03Z</time>
      </trkpt>
      <trkpt lat="48.59398" lon="1.97725">
        <ele>140.49</ele>
        <time>2016-06-09T08:41:14Z</time>
      </trkpt>
      <trkpt lat="48.5941" lon="1.97733">
        <ele>140.49</ele>
        <time>2016-06-09T08:41:27Z</time>
      </trkpt>
      <trkpt lat="48.59424" lon="1.97738">
        <ele>140.01</ele>
        <time>2016-06-09T08:41:38Z</time>
      </trkpt>
      <trkpt lat="48.59432" lon="1.97739">
        <ele>140.01</ele>
        <time>2016-06-09T08:41:45Z</time>
      </trkpt>
      <trkpt lat="48.59436" lon="1.97721">
        <ele>137.61</ele>
        <time>2016-06-09T08:42:00Z</time>
      </trkpt>
      <trkpt lat="48.59435" lon="1.97717">
        <ele>137.61</ele>
        <time>2016-06-09T08:42:03Z</time>
      </trkpt>
      <trkpt lat="48.5943" lon="1.97693">
        <ele>135.2</ele>
        <time>2016-06-09T08:42:18Z</time>
      </trkpt>
      <trkpt lat="48.59434" lon="1.97677">
        <ele>133.28</ele>
        <time>2016-06-09T08:42:30Z</time>
      </trkpt>
      <trkpt lat="48.59437" lon="1.97654">
        <ele>131.36</ele>
        <time>2016-06-09T08:42:43Z</time>
      </trkpt>
      <trkpt lat="48.5944" lon="1.97642">
        <ele>130.88</ele>
        <time>2016-06-09T08:43:01Z</time>
      </trkpt>
      <trkpt lat="48.59443" lon="1.97639">
        <ele>129.43</ele>
        <time>2016-06-09T08:43:24Z</time>
      </trkpt>
      <trkpt lat="48.59456" lon="1.97652">
        <ele>129.92</ele>
        <time>2016-06-09T08:43:41Z</time>
      </trkpt>
      <trkpt lat="48.59475" lon="1.97664">
        <ele>129.43</ele>
        <time>2016-06-09T08:43:52Z</time>
      </trkpt>
      <trkpt lat="48.59524" lon="1.97692">
        <ele>128.47</ele>
        <time>2016-06-09T08:44:06Z</time>
      </trkpt>
      <trkpt lat="48.59542" lon="1.97702">
        <ele>127.51</ele>
        <time>2016-06-09T08:44:20Z</time>
      </trkpt>
      <trkpt lat="48.59555" lon="1.97714">
        <ele>126.07</ele>
        <time>2016-06-09T08:44:35Z</time>
      </trkpt>
      <trkpt lat="48.59574" lon="1.97729">
        <ele>124.15</ele>
        <time>2016-06-09T08:44:55Z</time>
      </trkpt>
      <trkpt lat="48.59588" lon="1.97738">
        <ele>122.71</ele>
        <time>2016-06-09T08:45:13Z</time>
      </trkpt>
      <trkpt lat="48.59618" lon="1.97748">
        <ele>120.3</ele>
        <time>2016-06-09T08:45:31Z</time>
      </trkpt>
      <trkpt lat="48.59651" lon="1.9777">
        <ele>117.42</ele>
        <time>2016-06-09T08:45:50Z</time>
      </trkpt>
      <trkpt lat="48.59658" lon="1.97777">
        <ele>114.53</ele>
        <time>2016-06-09T08:46:04Z</time>
      </trkpt>
      <trkpt lat="48.59671" lon="1.9779">
        <ele>112.13</ele>
        <time>2016-06-09T08:46:14Z</time>
      </trkpt>
      <trkpt lat="48.59689" lon="1.97805">
        <ele>113.57</ele>
        <time>2016-06-09T08:46:22Z</time>
      </trkpt>
      <trkpt lat="48.59693" lon="1.97814">
        <ele>114.53</ele>
        <time>2016-06-09T08:46:28Z</time>
      </trkpt>
      <trkpt lat="48.59694" lon="1.97817">
        <ele>114.05</ele>
        <time>2016-06-09T08:46:30Z</time>
      </trkpt>
      <trkpt lat="48.59702" lon="1.97837">
        <ele>113.57</ele>
        <time>2016-06-09T08:46:45Z</time>
      </trkpt>
      <trkpt lat="48.59716" lon="1.97848">
        <ele>113.09</ele>
        <time>2016-06-09T08:47:02Z</time>
      </trkpt>
      <trkpt lat="48.5974" lon="1.97868">
        <ele>114.05</ele>
        <time>2016-06-09T08:47:22Z</time>
      </trkpt>
      <trkpt lat="48.59764" lon="1.97892">
        <ele>114.05</ele>
        <time>2016-06-09T08:47:43Z</time>
      </trkpt>
      <trkpt lat="48.59785" lon="1.97909">
        <ele>113.57</ele>
        <time>2016-06-09T08:48:03Z</time>
      </trkpt>
      <trkpt lat="48.59797" lon="1.97919">
        <ele>116.46</ele>
        <time>2016-06-09T08:48:13Z</time>
      </trkpt>
      <trkpt lat="48.59819" lon="1.97939">
        <ele>119.82</ele>
        <time>2016-06-09T08:48:33Z</time>
      </trkpt>
      <trkpt lat="48.59827" lon="1.97953">
        <ele>122.71</ele>
        <time>2016-06-09T08:48:46Z</time>
      </trkpt>
      <trkpt lat="48.59839" lon="1.97973">
        <ele>126.07</ele>
        <time>2016-06-09T08:49:00Z</time>
      </trkpt>
      <trkpt lat="48.59851" lon="1.97986">
        <ele>128.95</ele>
        <time>2016-06-09T08:49:16Z</time>
      </trkpt>
      <trkpt lat="48.59862" lon="1.97986">
        <ele>128.47</ele>
        <time>2016-06-09T08:49:31Z</time>
      </trkpt>
      <trkpt lat="48.59863" lon="1.97986">
        <ele>128.47</ele>
        <time>2016-06-09T08:49:51Z</time>
      </trkpt>
      <trkpt lat="48.59863" lon="1.97984">
        <ele>128.47</ele>
        <time>2016-06-09T08:50:06Z</time>
      </trkpt>
      <trkpt lat="48.59871" lon="1.9797">
        <ele>126.55</ele>
        <time>2016-06-09T08:50:24Z</time>
      </trkpt>
      <trkpt lat="48.59879" lon="1.9795">
        <ele>123.67</ele>
        <time>2016-06-09T08:50:38Z</time>
      </trkpt>
      <trkpt lat="48.59888" lon="1.97922">
        <ele>120.3</ele>
        <time>2016-06-09T08:50:54Z</time>
      </trkpt>
      <trkpt lat="48.59898" lon="1.97906">
        <ele>116.94</ele>
        <time>2016-06-09T08:51:07Z</time>
      </trkpt>
      <trkpt lat="48.59899" lon="1.97904">
        <ele>116.94</ele>
        <time>2016-06-09T08:51:08Z</time>
      </trkpt>
      <trkpt lat="48.59908" lon="1.97891">
        <ele>113.57</ele>
        <time>2016-06-09T08:51:21Z</time>
      </trkpt>
      <trkpt lat="48.59915" lon="1.97872">
        <ele>110.69</ele>
        <time>2016-06-09T08:51:35Z</time>
      </trkpt>
      <trkpt lat="48.59916" lon="1.9787">
        <ele>110.69</ele>
        <time>2016-06-09T08:51:37Z</time>
      </trkpt>
      <trkpt lat="48.59928" lon="1.97843">
        <ele>108.77</ele>
        <time>2016-06-09T08:51:53Z</time>
      </trkpt>
      <trkpt lat="48.59931" lon="1.97842">
        <ele>108.77</ele>
        <time>2016-06-09T08:51:55Z</time>
      </trkpt>
      <trkpt lat="48.59944" lon="1.97824">
        <ele>107.32</ele>
        <time>2016-06-09T08:52:09Z</time>
      </trkpt>
      <trkpt lat="48.59954" lon="1.97801">
        <ele>106.84</ele>
        <time>2016-06-09T08:52:23Z</time>
      </trkpt>
      <trkpt lat="48.59966" lon="1.97777">
        <ele>104.92</ele>
        <time>2016-06-09T08:52:42Z</time>
      </trkpt>
      <trkpt lat="48.59949" lon="1.97737">
        <ele>105.4</ele>
        <time>2016-06-09T08:52:56Z</time>
      </trkpt>
      <trkpt lat="48.59927" lon="1.97719">
        <ele>104.44</ele>
        <time>2016-06-09T08:53:13Z</time>
      </trkpt>
      <trkpt lat="48.59905" lon="1.97707">
        <ele>103.96</ele>
        <time>2016-06-09T08:53:29Z</time>
      </trkpt>
      <trkpt lat="48.5989" lon="1.97697">
        <ele>103</ele>
        <time>2016-06-09T08:53:42Z</time>
      </trkpt>
      <trkpt lat="48.59883" lon="1.97693">
        <ele>102.52</ele>
        <time>2016-06-09T08:53:48Z</time>
      </trkpt>
      <trkpt lat="48.59877" lon="1.97687">
        <ele>102.52</ele>
        <time>2016-06-09T08:53:53Z</time>
      </trkpt>
      <trkpt lat="48.59858" lon="1.97679">
        <ele>102.52</ele>
        <time>2016-06-09T08:54:07Z</time>
      </trkpt>
      <trkpt lat="48.59837" lon="1.97663">
        <ele>103.48</ele>
        <time>2016-06-09T08:54:24Z</time>
      </trkpt>
      <trkpt lat="48.5982" lon="1.97654">
        <ele>104.44</ele>
        <time>2016-06-09T08:54:37Z</time>
      </trkpt>
      <trkpt lat="48.59813" lon="1.9765">
        <ele>104.44</ele>
        <time>2016-06-09T08:54:43Z</time>
      </trkpt>
      <trkpt lat="48.59794" lon="1.97634">
        <ele>105.4</ele>
        <time>2016-06-09T08:54:58Z</time>
      </trkpt>
      <trkpt lat="48.59787" lon="1.97629">
        <ele>106.84</ele>
        <time>2016-06-09T08:55:04Z</time>
      </trkpt>
      <trkpt lat="48.59784" lon="1.97628">
        <ele>106.84</ele>
        <time>2016-06-09T08:55:06Z</time>
      </trkpt>
      <trkpt lat="48.59777" lon="1.97624">
        <ele>107.32</ele>
        <time>2016-06-09T08:55:11Z</time>
      </trkpt>
      <trkpt lat="48.59772" lon="1.9762">
        <ele>108.29</ele>
        <time>2016-06-09T08:55:15Z</time>
      </trkpt>
      <trkpt lat="48.59752" lon="1.97608">
        <ele>107.32</ele>
        <time>2016-06-09T08:55:30Z</time>
      </trkpt>
      <trkpt lat="48.59733" lon="1.97594">
        <ele>107.32</ele>
        <time>2016-06-09T08:55:45Z</time>
      </trkpt>
      <trkpt lat="48.59729" lon="1.97591">
        <ele>107.81</ele>
        <time>2016-06-09T08:55:47Z</time>
      </trkpt>
      <trkpt lat="48.5972" lon="1.97586">
        <ele>108.29</ele>
        <time>2016-06-09T08:55:52Z</time>
      </trkpt>
      <trkpt lat="48.59699" lon="1.97571">
        <ele>109.25</ele>
        <time>2016-06-09T08:56:07Z</time>
      </trkpt>
      <trkpt lat="48.59678" lon="1.97551">
        <ele>112.13</ele>
        <time>2016-06-09T08:56:24Z</time>
      </trkpt>
      <trkpt lat="48.59675" lon="1.97548">
        <ele>111.65</ele>
        <time>2016-06-09T08:56:27Z</time>
      </trkpt>
      <trkpt lat="48.59672" lon="1.97547">
        <ele>112.13</ele>
        <time>2016-06-09T08:56:29Z</time>
      </trkpt>
      <trkpt lat="48.59666" lon="1.97542">
        <ele>113.09</ele>
        <time>2016-06-09T08:56:35Z</time>
      </trkpt>
      <trkpt lat="48.59645" lon="1.97534">
        <ele>113.57</ele>
        <time>2016-06-09T08:56:51Z</time>
      </trkpt>
      <trkpt lat="48.59622" lon="1.97521">
        <ele>114.05</ele>
        <time>2016-06-09T08:57:05Z</time>
      </trkpt>
      <trkpt lat="48.59597" lon="1.97503">
        <ele>114.53</ele>
        <time>2016-06-09T08:57:22Z</time>
      </trkpt>
      <trkpt lat="48.59583" lon="1.97495">
        <ele>115.5</ele>
        <time>2016-06-09T08:57:33Z</time>
      </trkpt>
      <trkpt lat="48.59562" lon="1.97479">
        <ele>116.94</ele>
        <time>2016-06-09T08:57:50Z</time>
      </trkpt>
      <trkpt lat="48.59541" lon="1.97465">
        <ele>119.82</ele>
        <time>2016-06-09T08:58:04Z</time>
      </trkpt>
      <trkpt lat="48.5954" lon="1.97464">
        <ele>119.82</ele>
        <time>2016-06-09T08:58:05Z</time>
      </trkpt>
      <trkpt lat="48.59524" lon="1.97451">
        <ele>121.26</ele>
        <time>2016-06-09T08:58:19Z</time>
      </trkpt>
      <trkpt lat="48.59507" lon="1.97438">
        <ele>123.67</ele>
        <time>2016-06-09T08:58:33Z</time>
      </trkpt>
      <trkpt lat="48.59486" lon="1.9743">
        <ele>123.67</ele>
        <time>2016-06-09T08:58:48Z</time>
      </trkpt>
      <trkpt lat="48.59479" lon="1.97421">
        <ele>124.15</ele>
        <time>2016-06-09T08:59:02Z</time>
      </trkpt>
      <trkpt lat="48.59479" lon="1.97421">
        <ele>123.67</ele>
        <time>2016-06-09T08:59:14Z</time>
      </trkpt>
      <trkpt lat="48.59479" lon="1.97422">
        <ele>123.67</ele>
        <time>2016-06-09T08:59:30Z</time>
      </trkpt>
      <trkpt lat="48.59479" lon="1.97424">
        <ele>124.15</ele>
        <time>2016-06-09T08:59:48Z</time>
      </trkpt>
      <trkpt lat="48.59479" lon="1.97424">
        <ele>124.63</ele>
        <time>2016-06-09T09:00:04Z</time>
      </trkpt>
      <trkpt lat="48.59479" lon="1.97425">
        <ele>124.15</ele>
        <time>2016-06-09T09:00:27Z</time>
      </trkpt>
      <trkpt lat="48.59479" lon="1.97424">
        <ele>124.63</ele>
        <time>2016-06-09T09:00:31Z</time>
      </trkpt>
      <trkpt lat="48.59482" lon="1.97417">
        <ele>124.63</ele>
        <time>2016-06-09T09:00:39Z</time>
      </trkpt>
      <trkpt lat="48.59484" lon="1.97415">
        <ele>124.63</ele>
        <time>2016-06-09T09:00:42Z</time>
      </trkpt>
      <trkpt lat="48.59488" lon="1.97406">
        <ele>124.63</ele>
        <time>2016-06-09T09:00:49Z</time>
      </trkpt>
      <trkpt lat="48.59496" lon="1.9739">
        <ele>124.63</ele>
        <time>2016-06-09T09:00:58Z</time>
      </trkpt>
      <trkpt lat="48.59511" lon="1.97373">
        <ele>123.67</ele>
        <time>2016-06-09T09:01:15Z</time>
      </trkpt>
      <trkpt lat="48.59533" lon="1.97354">
        <ele>122.22</ele>
        <time>2016-06-09T09:01:31Z</time>
      </trkpt>
      <trkpt lat="48.59558" lon="1.97339">
        <ele>122.71</ele>
        <time>2016-06-09T09:01:46Z</time>
      </trkpt>
      <trkpt lat="48.59584" lon="1.97327">
        <ele>122.22</ele>
        <time>2016-06-09T09:02:06Z</time>
      </trkpt>
      <trkpt lat="48.59603" lon="1.97313">
        <ele>122.22</ele>
        <time>2016-06-09T09:02:24Z</time>
      </trkpt>
      <trkpt lat="48.59627" lon="1.97305">
        <ele>119.34</ele>
        <time>2016-06-09T09:02:38Z</time>
      </trkpt>
      <trkpt lat="48.59652" lon="1.97286">
        <ele>117.9</ele>
        <time>2016-06-09T09:02:59Z</time>
      </trkpt>
      <trkpt lat="48.59674" lon="1.97274">
        <ele>117.42</ele>
        <time>2016-06-09T09:03:18Z</time>
      </trkpt>
      <trkpt lat="48.59696" lon="1.97261">
        <ele>117.42</ele>
        <time>2016-06-09T09:03:39Z</time>
      </trkpt>
      <trkpt lat="48.59721" lon="1.97249">
        <ele>118.38</ele>
        <time>2016-06-09T09:03:57Z</time>
      </trkpt>
      <trkpt lat="48.5974" lon="1.97242">
        <ele>118.86</ele>
        <time>2016-06-09T09:04:15Z</time>
      </trkpt>
      <trkpt lat="48.59769" lon="1.97226">
        <ele>119.82</ele>
        <time>2016-06-09T09:04:32Z</time>
      </trkpt>
      <trkpt lat="48.59793" lon="1.97214">
        <ele>118.86</ele>
        <time>2016-06-09T09:04:51Z</time>
      </trkpt>
      <trkpt lat="48.59817" lon="1.97201">
        <ele>119.34</ele>
        <time>2016-06-09T09:05:10Z</time>
      </trkpt>
      <trkpt lat="48.59849" lon="1.97191">
        <ele>119.82</ele>
        <time>2016-06-09T09:05:31Z</time>
      </trkpt>
      <trkpt lat="48.5987" lon="1.97179">
        <ele>119.82</ele>
        <time>2016-06-09T09:05:51Z</time>
      </trkpt>
      <trkpt lat="48.5989" lon="1.9717">
        <ele>120.78</ele>
        <time>2016-06-09T09:06:10Z</time>
      </trkpt>
      <trkpt lat="48.59897" lon="1.97163">
        <ele>122.71</ele>
        <time>2016-06-09T09:06:31Z</time>
      </trkpt>
      <trkpt lat="48.59948" lon="1.97146">
        <ele>125.11</ele>
        <time>2016-06-09T09:06:54Z</time>
      </trkpt>
      <trkpt lat="48.59952" lon="1.97145">
        <ele>125.11</ele>
        <time>2016-06-09T09:06:55Z</time>
      </trkpt>
      <trkpt lat="48.59976" lon="1.97137">
        <ele>125.59</ele>
        <time>2016-06-09T09:07:10Z</time>
      </trkpt>
      <trkpt lat="48.59977" lon="1.97137">
        <ele>126.07</ele>
        <time>2016-06-09T09:07:11Z</time>
      </trkpt>
      <trkpt lat="48.5998" lon="1.97137">
        <ele>126.07</ele>
        <time>2016-06-09T09:07:13Z</time>
      </trkpt>
      <trkpt lat="48.59992" lon="1.9714">
        <ele>125.59</ele>
        <time>2016-06-09T09:07:29Z</time>
      </trkpt>
      <trkpt lat="48.60006" lon="1.9714">
        <ele>125.59</ele>
        <time>2016-06-09T09:07:40Z</time>
      </trkpt>
      <trkpt lat="48.60036" lon="1.97119">
        <ele>125.11</ele>
        <time>2016-06-09T09:07:59Z</time>
      </trkpt>
      <trkpt lat="48.60059" lon="1.97104">
        <ele>124.63</ele>
        <time>2016-06-09T09:08:15Z</time>
      </trkpt>
      <trkpt lat="48.60079" lon="1.97089">
        <ele>124.15</ele>
        <time>2016-06-09T09:08:30Z</time>
      </trkpt>
      <trkpt lat="48.60104" lon="1.9708">
        <ele>121.74</ele>
        <time>2016-06-09T09:08:50Z</time>
      </trkpt>
      <trkpt lat="48.60129" lon="1.97083">
        <ele>119.82</ele>
        <time>2016-06-09T09:09:06Z</time>
      </trkpt>
      <trkpt lat="48.60149" lon="1.97083">
        <ele>117.42</ele>
        <time>2016-06-09T09:09:22Z</time>
      </trkpt>
      <trkpt lat="48.6017" lon="1.97086">
        <ele>115.5</ele>
        <time>2016-06-09T09:09:39Z</time>
      </trkpt>
      <trkpt lat="48.60199" lon="1.97087">
        <ele>113.09</ele>
        <time>2016-06-09T09:10:00Z</time>
      </trkpt>
      <trkpt lat="48.60223" lon="1.97097">
        <ele>111.17</ele>
        <time>2016-06-09T09:10:20Z</time>
      </trkpt>
      <trkpt lat="48.6024" lon="1.97104">
        <ele>109.73</ele>
        <time>2016-06-09T09:10:39Z</time>
      </trkpt>
      <trkpt lat="48.6025" lon="1.97099">
        <ele>109.73</ele>
        <time>2016-06-09T09:10:47Z</time>
      </trkpt>
      <trkpt lat="48.60259" lon="1.97086">
        <ele>108.77</ele>
        <time>2016-06-09T09:11:00Z</time>
      </trkpt>
      <trkpt lat="48.60271" lon="1.97066">
        <ele>107.32</ele>
        <time>2016-06-09T09:11:17Z</time>
      </trkpt>
      <trkpt lat="48.6028" lon="1.97042">
        <ele>106.84</ele>
        <time>2016-06-09T09:11:30Z</time>
      </trkpt>
      <trkpt lat="48.60285" lon="1.97009">
        <ele>107.32</ele>
        <time>2016-06-09T09:11:47Z</time>
      </trkpt>
      <trkpt lat="48.60284" lon="1.97">
        <ele>106.84</ele>
        <time>2016-06-09T09:11:52Z</time>
      </trkpt>
      <trkpt lat="48.60281" lon="1.96986">
        <ele>107.81</ele>
        <time>2016-06-09T09:11:58Z</time>
      </trkpt>
      <trkpt lat="48.60273" lon="1.96954">
        <ele>108.29</ele>
        <time>2016-06-09T09:12:14Z</time>
      </trkpt>
      <trkpt lat="48.60262" lon="1.96927">
        <ele>109.25</ele>
        <time>2016-06-09T09:12:29Z</time>
      </trkpt>
      <trkpt lat="48.60251" lon="1.96902">
        <ele>109.73</ele>
        <time>2016-06-09T09:12:42Z</time>
      </trkpt>
      <trkpt lat="48.60242" lon="1.96868">
        <ele>110.69</ele>
        <time>2016-06-09T09:13:00Z</time>
      </trkpt>
      <trkpt lat="48.60233" lon="1.96834">
        <ele>111.17</ele>
        <time>2016-06-09T09:13:16Z</time>
      </trkpt>
      <trkpt lat="48.60222" lon="1.968">
        <ele>112.61</ele>
        <time>2016-06-09T09:13:33Z</time>
      </trkpt>
      <trkpt lat="48.6022" lon="1.96787">
        <ele>113.09</ele>
        <time>2016-06-09T09:13:40Z</time>
      </trkpt>
      <trkpt lat="48.60215" lon="1.9676">
        <ele>113.09</ele>
        <time>2016-06-09T09:13:55Z</time>
      </trkpt>
      <trkpt lat="48.60206" lon="1.96729">
        <ele>113.57</ele>
        <time>2016-06-09T09:14:12Z</time>
      </trkpt>
      <trkpt lat="48.60198" lon="1.96697">
        <ele>114.53</ele>
        <time>2016-06-09T09:14:28Z</time>
      </trkpt>
      <trkpt lat="48.60198" lon="1.96662">
        <ele>115.01</ele>
        <time>2016-06-09T09:14:44Z</time>
      </trkpt>
      <trkpt lat="48.60201" lon="1.96634">
        <ele>115.5</ele>
        <time>2016-06-09T09:14:58Z</time>
      </trkpt>
      <trkpt lat="48.60204" lon="1.96611">
        <ele>116.94</ele>
        <time>2016-06-09T09:15:15Z</time>
      </trkpt>
      <trkpt lat="48.6021" lon="1.96576">
        <ele>117.42</ele>
        <time>2016-06-09T09:15:31Z</time>
      </trkpt>
      <trkpt lat="48.60211" lon="1.96539">
        <ele>117.9</ele>
        <time>2016-06-09T09:15:47Z</time>
      </trkpt>
      <trkpt lat="48.60212" lon="1.96532">
        <ele>118.86</ele>
        <time>2016-06-09T09:15:50Z</time>
      </trkpt>
      <trkpt lat="48.60212" lon="1.96524">
        <ele>118.86</ele>
        <time>2016-06-09T09:15:53Z</time>
      </trkpt>
      <trkpt lat="48.60213" lon="1.96496">
        <ele>119.34</ele>
        <time>2016-06-09T09:16:07Z</time>
      </trkpt>
      <trkpt lat="48.60204" lon="1.96463">
        <ele>120.78</ele>
        <time>2016-06-09T09:16:21Z</time>
      </trkpt>
      <trkpt lat="48.60201" lon="1.9644">
        <ele>120.78</ele>
        <time>2016-06-09T09:16:32Z</time>
      </trkpt>
      <trkpt lat="48.60199" lon="1.96421">
        <ele>121.26</ele>
        <time>2016-06-09T09:16:39Z</time>
      </trkpt>
      <trkpt lat="48.60193" lon="1.96379">
        <ele>121.26</ele>
        <time>2016-06-09T09:16:57Z</time>
      </trkpt>
      <trkpt lat="48.60184" lon="1.96352">
        <ele>120.3</ele>
        <time>2016-06-09T09:17:10Z</time>
      </trkpt>
      <trkpt lat="48.6018" lon="1.9632">
        <ele>118.86</ele>
        <time>2016-06-09T09:17:26Z</time>
      </trkpt>
      <trkpt lat="48.6017" lon="1.96286">
        <ele>116.94</ele>
        <time>2016-06-09T09:17:42Z</time>
      </trkpt>
      <trkpt lat="48.60165" lon="1.96274">
        <ele>116.46</ele>
        <time>2016-06-09T09:17:48Z</time>
      </trkpt>
      <trkpt lat="48.60151" lon="1.96256">
        <ele>115.01</ele>
        <time>2016-06-09T09:18:01Z</time>
      </trkpt>
      <trkpt lat="48.60149" lon="1.96236">
        <ele>113.09</ele>
        <time>2016-06-09T09:18:16Z</time>
      </trkpt>
      <trkpt lat="48.60149" lon="1.96222">
        <ele>112.61</ele>
        <time>2016-06-09T09:18:25Z</time>
      </trkpt>
      <trkpt lat="48.60151" lon="1.96202">
        <ele>110.21</ele>
        <time>2016-06-09T09:18:39Z</time>
      </trkpt>
      <trkpt lat="48.60157" lon="1.96182">
        <ele>108.77</ele>
        <time>2016-06-09T09:18:57Z</time>
      </trkpt>
      <trkpt lat="48.60154" lon="1.96142">
        <ele>107.81</ele>
        <time>2016-06-09T09:19:15Z</time>
      </trkpt>
      <trkpt lat="48.60147" lon="1.96103">
        <ele>106.84</ele>
        <time>2016-06-09T09:19:31Z</time>
      </trkpt>
      <trkpt lat="48.60139" lon="1.96078">
        <ele>106.36</ele>
        <time>2016-06-09T09:19:48Z</time>
      </trkpt>
      <trkpt lat="48.60141" lon="1.96075">
        <ele>105.88</ele>
        <time>2016-06-09T09:20:13Z</time>
      </trkpt>
      <trkpt lat="48.60142" lon="1.96074">
        <ele>105.88</ele>
        <time>2016-06-09T09:20:30Z</time>
      </trkpt>
      <trkpt lat="48.6014" lon="1.96055">
        <ele>104.44</ele>
        <time>2016-06-09T09:20:46Z</time>
      </trkpt>
      <trkpt lat="48.60139" lon="1.96044">
        <ele>103.96</ele>
        <time>2016-06-09T09:20:51Z</time>
      </trkpt>
      <trkpt lat="48.60133" lon="1.96012">
        <ele>103</ele>
        <time>2016-06-09T09:21:05Z</time>
      </trkpt>
      <trkpt lat="48.60129" lon="1.95993">
        <ele>102.04</ele>
        <time>2016-06-09T09:21:21Z</time>
      </trkpt>
      <trkpt lat="48.60123" lon="1.95966">
        <ele>101.56</ele>
        <time>2016-06-09T09:21:36Z</time>
      </trkpt>
      <trkpt lat="48.60119" lon="1.95942">
        <ele>100.6</ele>
        <time>2016-06-09T09:21:52Z</time>
      </trkpt>
      <trkpt lat="48.60109" lon="1.95914">
        <ele>100.11</ele>
        <time>2016-06-09T09:22:05Z</time>
      </trkpt>
      <trkpt lat="48.60086" lon="1.95883">
        <ele>101.08</ele>
        <time>2016-06-09T09:22:22Z</time>
      </trkpt>
      <trkpt lat="48.60071" lon="1.9586">
        <ele>101.56</ele>
        <time>2016-06-09T09:22:40Z</time>
      </trkpt>
      <trkpt lat="48.60051" lon="1.95829">
        <ele>101.56</ele>
        <time>2016-06-09T09:22:57Z</time>
      </trkpt>
      <trkpt lat="48.60033" lon="1.95793">
        <ele>102.52</ele>
        <time>2016-06-09T09:23:14Z</time>
      </trkpt>
      <trkpt lat="48.60021" lon="1.95766">
        <ele>103</ele>
        <time>2016-06-09T09:23:28Z</time>
      </trkpt>
      <trkpt lat="48.60006" lon="1.95732">
        <ele>104.44</ele>
        <time>2016-06-09T09:23:46Z</time>
      </trkpt>
      <trkpt lat="48.59993" lon="1.95708">
        <ele>105.4</ele>
        <time>2016-06-09T09:23:58Z</time>
      </trkpt>
      <trkpt lat="48.59986" lon="1.95701">
        <ele>105.4</ele>
        <time>2016-06-09T09:24:04Z</time>
      </trkpt>
      <trkpt lat="48.59975" lon="1.95689">
        <ele>107.32</ele>
        <time>2016-06-09T09:24:18Z</time>
      </trkpt>
      <trkpt lat="48.59959" lon="1.95684">
        <ele>108.29</ele>
        <time>2016-06-09T09:24:34Z</time>
      </trkpt>
      <trkpt lat="48.5995" lon="1.9568">
        <ele>107.81</ele>
        <time>2016-06-09T09:24:40Z</time>
      </trkpt>
      <trkpt lat="48.59933" lon="1.95683">
        <ele>106.84</ele>
        <time>2016-06-09T09:24:52Z</time>
      </trkpt>
      <trkpt lat="48.59913" lon="1.95683">
        <ele>105.88</ele>
        <time>2016-06-09T09:25:07Z</time>
      </trkpt>
      <trkpt lat="48.59895" lon="1.95676">
        <ele>104.44</ele>
        <time>2016-06-09T09:25:22Z</time>
      </trkpt>
      <trkpt lat="48.59888" lon="1.95671">
        <ele>104.44</ele>
        <time>2016-06-09T09:25:29Z</time>
      </trkpt>
      <trkpt lat="48.59865" lon="1.95673">
        <ele>103.48</ele>
        <time>2016-06-09T09:25:42Z</time>
      </trkpt>
      <trkpt lat="48.59849" lon="1.95678">
        <ele>103</ele>
        <time>2016-06-09T09:25:54Z</time>
      </trkpt>
      <trkpt lat="48.59832" lon="1.95683">
        <ele>102.52</ele>
        <time>2016-06-09T09:26:08Z</time>
      </trkpt>
      <trkpt lat="48.59822" lon="1.95689">
        <ele>102.04</ele>
        <time>2016-06-09T09:26:14Z</time>
      </trkpt>
      <trkpt lat="48.59804" lon="1.95695">
        <ele>101.08</ele>
        <time>2016-06-09T09:26:29Z</time>
      </trkpt>
      <trkpt lat="48.59782" lon="1.95694">
        <ele>100.6</ele>
        <time>2016-06-09T09:26:47Z</time>
      </trkpt>
      <trkpt lat="48.59762" lon="1.95685">
        <ele>100.11</ele>
        <time>2016-06-09T09:27:00Z</time>
      </trkpt>
      <trkpt lat="48.59732" lon="1.9567">
        <ele>100.11</ele>
        <time>2016-06-09T09:27:16Z</time>
      </trkpt>
      <trkpt lat="48.5973" lon="1.95669">
        <ele>100.11</ele>
        <time>2016-06-09T09:27:18Z</time>
      </trkpt>
      <trkpt lat="48.59724" lon="1.95667">
        <ele>99.15</ele>
        <time>2016-06-09T09:27:23Z</time>
      </trkpt>
      <trkpt lat="48.59698" lon="1.9566">
        <ele>99.63</ele>
        <time>2016-06-09T09:27:43Z</time>
      </trkpt>
      <trkpt lat="48.59677" lon="1.95654">
        <ele>99.15</ele>
        <time>2016-06-09T09:27:57Z</time>
      </trkpt>
      <trkpt lat="48.59656" lon="1.9565">
        <ele>99.15</ele>
        <time>2016-06-09T09:28:12Z</time>
      </trkpt>
      <trkpt lat="48.59653" lon="1.9565">
        <ele>99.15</ele>
        <time>2016-06-09T09:28:14Z</time>
      </trkpt>
      <trkpt lat="48.59645" lon="1.95647">
        <ele>99.15</ele>
        <time>2016-06-09T09:28:20Z</time>
      </trkpt>
      <trkpt lat="48.59624" lon="1.95645">
        <ele>98.67</ele>
        <time>2016-06-09T09:28:34Z</time>
      </trkpt>
      <trkpt lat="48.59618" lon="1.95647">
        <ele>98.67</ele>
        <time>2016-06-09T09:28:39Z</time>
      </trkpt>
      <trkpt lat="48.59596" lon="1.95652">
        <ele>98.67</ele>
        <time>2016-06-09T09:28:54Z</time>
      </trkpt>
      <trkpt lat="48.59583" lon="1.95649">
        <ele>98.67</ele>
        <time>2016-06-09T09:29:08Z</time>
      </trkpt>
      <trkpt lat="48.59576" lon="1.9565">
        <ele>99.15</ele>
        <time>2016-06-09T09:29:24Z</time>
      </trkpt>
      <trkpt lat="48.59562" lon="1.95662">
        <ele>99.15</ele>
        <time>2016-06-09T09:29:38Z</time>
      </trkpt>
      <trkpt lat="48.59542" lon="1.95673">
        <ele>99.15</ele>
        <time>2016-06-09T09:29:51Z</time>
      </trkpt>
      <trkpt lat="48.59535" lon="1.95679">
        <ele>99.63</ele>
        <time>2016-06-09T09:29:59Z</time>
      </trkpt>
      <trkpt lat="48.59517" lon="1.95687">
        <ele>99.15</ele>
        <time>2016-06-09T09:30:14Z</time>
      </trkpt>
      <trkpt lat="48.595" lon="1.95692">
        <ele>99.15</ele>
        <time>2016-06-09T09:30:28Z</time>
      </trkpt>
      <trkpt lat="48.59491" lon="1.95704">
        <ele>99.15</ele>
        <time>2016-06-09T09:30:45Z</time>
      </trkpt>
      <trkpt lat="48.59487" lon="1.95717">
        <ele>99.63</ele>
        <time>2016-06-09T09:31:02Z</time>
      </trkpt>
      <trkpt lat="48.59482" lon="1.95731">
        <ele>99.63</ele>
        <time>2016-06-09T09:31:17Z</time>
      </trkpt>
      <trkpt lat="48.59473" lon="1.95753">
        <ele>99.63</ele>
        <time>2016-06-09T09:31:33Z</time>
      </trkpt>
      <trkpt lat="48.59464" lon="1.9577">
        <ele>99.63</ele>
        <time>2016-06-09T09:31:42Z</time>
      </trkpt>
      <trkpt lat="48.59457" lon="1.95791">
        <ele>100.11</ele>
        <time>2016-06-09T09:31:59Z</time>
      </trkpt>
      <trkpt lat="48.59454" lon="1.95809">
        <ele>100.11</ele>
        <time>2016-06-09T09:32:18Z</time>
      </trkpt>
      <trkpt lat="48.59447" lon="1.95824">
        <ele>100.11</ele>
        <time>2016-06-09T09:32:37Z</time>
      </trkpt>
      <trkpt lat="48.59445" lon="1.95828">
        <ele>100.11</ele>
        <time>2016-06-09T09:32:40Z</time>
      </trkpt>
      <trkpt lat="48.59431" lon="1.95864">
        <ele>100.11</ele>
        <time>2016-06-09T09:32:56Z</time>
      </trkpt>
      <trkpt lat="48.59427" lon="1.95876">
        <ele>100.11</ele>
        <time>2016-06-09T09:33:03Z</time>
      </trkpt>
      <trkpt lat="48.59412" lon="1.95909">
        <ele>101.08</ele>
        <time>2016-06-09T09:33:18Z</time>
      </trkpt>
      <trkpt lat="48.59397" lon="1.95951">
        <ele>100.6</ele>
        <time>2016-06-09T09:33:37Z</time>
      </trkpt>
      <trkpt lat="48.59389" lon="1.95974">
        <ele>100.6</ele>
        <time>2016-06-09T09:33:53Z</time>
      </trkpt>
      <trkpt lat="48.59385" lon="1.95985">
        <ele>100.6</ele>
        <time>2016-06-09T09:34:08Z</time>
      </trkpt>
      <trkpt lat="48.59375" lon="1.96008">
        <ele>101.56</ele>
        <time>2016-06-09T09:34:27Z</time>
      </trkpt>
      <trkpt lat="48.5936" lon="1.96046">
        <ele>100.6</ele>
        <time>2016-06-09T09:34:43Z</time>
      </trkpt>
      <trkpt lat="48.59348" lon="1.96079">
        <ele>100.6</ele>
        <time>2016-06-09T09:34:59Z</time>
      </trkpt>
      <trkpt lat="48.5934" lon="1.96101">
        <ele>101.56</ele>
        <time>2016-06-09T09:35:14Z</time>
      </trkpt>
      <trkpt lat="48.59332" lon="1.96121">
        <ele>101.08</ele>
        <time>2016-06-09T09:35:26Z</time>
      </trkpt>
      <trkpt lat="48.59328" lon="1.96134">
        <ele>101.08</ele>
        <time>2016-06-09T09:35:38Z</time>
      </trkpt>
      <trkpt lat="48.59319" lon="1.96152">
        <ele>101.08</ele>
        <time>2016-06-09T09:35:51Z</time>
      </trkpt>
      <trkpt lat="48.59307" lon="1.96183">
        <ele>101.56</ele>
        <time>2016-06-09T09:36:07Z</time>
      </trkpt>
      <trkpt lat="48.59293" lon="1.96221">
        <ele>103</ele>
        <time>2016-06-09T09:36:25Z</time>
      </trkpt>
      <trkpt lat="48.59278" lon="1.9626">
        <ele>103.48</ele>
        <time>2016-06-09T09:36:42Z</time>
      </trkpt>
      <trkpt lat="48.59267" lon="1.96291">
        <ele>103.96</ele>
        <time>2016-06-09T09:36:53Z</time>
      </trkpt>
      <trkpt lat="48.59255" lon="1.96327">
        <ele>104.44</ele>
        <time>2016-06-09T09:37:09Z</time>
      </trkpt>
      <trkpt lat="48.59251" lon="1.96345">
        <ele>104.92</ele>
        <time>2016-06-09T09:37:23Z</time>
      </trkpt>
      <trkpt lat="48.59248" lon="1.96376">
        <ele>105.4</ele>
        <time>2016-06-09T09:37:40Z</time>
      </trkpt>
      <trkpt lat="48.59236" lon="1.96391">
        <ele>104.44</ele>
        <time>2016-06-09T09:37:56Z</time>
      </trkpt>
      <trkpt lat="48.59219" lon="1.96425">
        <ele>103.48</ele>
        <time>2016-06-09T09:38:12Z</time>
      </trkpt>
      <trkpt lat="48.59211" lon="1.96448">
        <ele>102.04</ele>
        <time>2016-06-09T09:38:29Z</time>
      </trkpt>
      <trkpt lat="48.5921" lon="1.9645">
        <ele>102.04</ele>
        <time>2016-06-09T09:38:30Z</time>
      </trkpt>
      <trkpt lat="48.59199" lon="1.96474">
        <ele>102.04</ele>
        <time>2016-06-09T09:38:44Z</time>
      </trkpt>
      <trkpt lat="48.5919" lon="1.96495">
        <ele>101.56</ele>
        <time>2016-06-09T09:38:52Z</time>
      </trkpt>
      <trkpt lat="48.59177" lon="1.96535">
        <ele>101.56</ele>
        <time>2016-06-09T09:39:10Z</time>
      </trkpt>
      <trkpt lat="48.59173" lon="1.96561">
        <ele>102.04</ele>
        <time>2016-06-09T09:39:24Z</time>
      </trkpt>
      <trkpt lat="48.59175" lon="1.96566">
        <ele>102.04</ele>
        <time>2016-06-09T09:39:28Z</time>
      </trkpt>
      <trkpt lat="48.59173" lon="1.96576">
        <ele>102.04</ele>
        <time>2016-06-09T09:39:33Z</time>
      </trkpt>
      <trkpt lat="48.59172" lon="1.96596">
        <ele>102.04</ele>
        <time>2016-06-09T09:39:51Z</time>
      </trkpt>
      <trkpt lat="48.59172" lon="1.96601">
        <ele>102.52</ele>
        <time>2016-06-09T09:40:08Z</time>
      </trkpt>
      <trkpt lat="48.59172" lon="1.96605">
        <ele>102.52</ele>
        <time>2016-06-09T09:40:27Z</time>
      </trkpt>
      <trkpt lat="48.59171" lon="1.9661">
        <ele>102.52</ele>
        <time>2016-06-09T09:40:52Z</time>
      </trkpt>
      <trkpt lat="48.59169" lon="1.96612">
        <ele>102.52</ele>
        <time>2016-06-09T09:41:18Z</time>
      </trkpt>
      <trkpt lat="48.59169" lon="1.96612">
        <ele>102.52</ele>
        <time>2016-06-09T09:41:35Z</time>
      </trkpt>
      <trkpt lat="48.59168" lon="1.96612">
        <ele>103</ele>
        <time>2016-06-09T09:42:03Z</time>
      </trkpt>
      <trkpt lat="48.59168" lon="1.96612">
        <ele>103</ele>
        <time>2016-06-09T09:42:22Z</time>
      </trkpt>
      <trkpt lat="48.59168" lon="1.96612">
        <ele>103.48</ele>
        <time>2016-06-09T09:42:43Z</time>
      </trkpt>
      <trkpt lat="48.59171" lon="1.96613">
        <ele>103</ele>
        <time>2016-06-09T09:43:06Z</time>
      </trkpt>
      <trkpt lat="48.5917" lon="1.96611">
        <ele>103</ele>
        <time>2016-06-09T09:43:24Z</time>
      </trkpt>
      <trkpt lat="48.59172" lon="1.96608">
        <ele>103.48</ele>
        <time>2016-06-09T09:43:45Z</time>
      </trkpt>
      <trkpt lat="48.59171" lon="1.96608">
        <ele>103.48</ele>
        <time>2016-06-09T09:44:06Z</time>
      </trkpt>
      <trkpt lat="48.5917" lon="1.96609">
        <ele>103.48</ele>
        <time>2016-06-09T09:44:18Z</time>
      </trkpt>
      <trkpt lat="48.59172" lon="1.96612">
        <ele>103.96</ele>
        <time>2016-06-09T09:44:39Z</time>
      </trkpt>
      <trkpt lat="48.59173" lon="1.96609">
        <ele>103.96</ele>
        <time>2016-06-09T09:45:02Z</time>
      </trkpt>
      <trkpt lat="48.59172" lon="1.96606">
        <ele>104.44</ele>
        <time>2016-06-09T09:45:31Z</time>
      </trkpt>
      <trkpt lat="48.59169" lon="1.96608">
        <ele>104.44</ele>
        <time>2016-06-09T09:46:01Z</time>
      </trkpt>
      <trkpt lat="48.59167" lon="1.96613">
        <ele>104.44</ele>
        <time>2016-06-09T09:46:04Z</time>
      </trkpt>
      <trkpt lat="48.59156" lon="1.96614">
        <ele>104.44</ele>
        <time>2016-06-09T09:46:26Z</time>
      </trkpt>
      <trkpt lat="48.59164" lon="1.9661">
        <ele>104.44</ele>
        <time>2016-06-09T09:46:56Z</time>
      </trkpt>
      <trkpt lat="48.59167" lon="1.96607">
        <ele>104.92</ele>
        <time>2016-06-09T09:47:23Z</time>
      </trkpt>
      <trkpt lat="48.59172" lon="1.96606">
        <ele>104.92</ele>
        <time>2016-06-09T09:47:42Z</time>
      </trkpt>
      <trkpt lat="48.59173" lon="1.96608">
        <ele>104.92</ele>
        <time>2016-06-09T09:48:02Z</time>
      </trkpt>
      <trkpt lat="48.5917" lon="1.9661">
        <ele>104.92</ele>
        <time>2016-06-09T09:48:26Z</time>
      </trkpt>
      <trkpt lat="48.59169" lon="1.96611">
        <ele>104.92</ele>
        <time>2016-06-09T09:48:49Z</time>
      </trkpt>
      <trkpt lat="48.59168" lon="1.96604">
        <ele>105.4</ele>
        <time>2016-06-09T09:49:18Z</time>
      </trkpt>
      <trkpt lat="48.59166" lon="1.96601">
        <ele>105.4</ele>
        <time>2016-06-09T09:49:48Z</time>
      </trkpt>
      <trkpt lat="48.59166" lon="1.96599">
        <ele>105.88</ele>
        <time>2016-06-09T09:50:18Z</time>
      </trkpt>
      <trkpt lat="48.59166" lon="1.966">
        <ele>106.36</ele>
        <time>2016-06-09T09:50:52Z</time>
      </trkpt>
      <trkpt lat="48.59165" lon="1.96601">
        <ele>103</ele>
        <time>2016-06-09T09:51:09Z</time>
      </trkpt>
      <trkpt lat="48.59165" lon="1.96601">
        <ele>110.21</ele>
        <time>2016-06-09T09:51:10Z</time>
      </trkpt>
      <trkpt lat="48.59165" lon="1.96601">
        <ele>107.81</ele>
        <time>2016-06-09T09:51:11Z</time>
      </trkpt>
      <trkpt lat="48.59165" lon="1.96601">
        <ele>106.84</ele>
        <time>2016-06-09T09:51:13Z</time>
      </trkpt>
      <trkpt lat="48.59164" lon="1.96599">
        <ele>107.32</ele>
        <time>2016-06-09T09:51:42Z</time>
      </trkpt>
      <trkpt lat="48.59164" lon="1.96598">
        <ele>107.32</ele>
        <time>2016-06-09T09:52:04Z</time>
      </trkpt>
      <trkpt lat="48.59163" lon="1.96598">
        <ele>107.81</ele>
        <time>2016-06-09T09:52:27Z</time>
      </trkpt>
      <trkpt lat="48.59163" lon="1.96598">
        <ele>107.81</ele>
        <time>2016-06-09T09:52:56Z</time>
      </trkpt>
      <trkpt lat="48.59164" lon="1.96599">
        <ele>107.81</ele>
        <time>2016-06-09T09:53:19Z</time>
      </trkpt>
      <trkpt lat="48.59164" lon="1.966">
        <ele>107.81</ele>
        <time>2016-06-09T09:53:41Z</time>
      </trkpt>
      <trkpt lat="48.59164" lon="1.96601">
        <ele>108.29</ele>
        <time>2016-06-09T09:54:02Z</time>
      </trkpt>
      <trkpt lat="48.59164" lon="1.96601">
        <ele>108.29</ele>
        <time>2016-06-09T09:54:21Z</time>
      </trkpt>
      <trkpt lat="48.59165" lon="1.96601">
        <ele>108.77</ele>
        <time>2016-06-09T09:54:48Z</time>
      </trkpt>
      <trkpt lat="48.59166" lon="1.96602">
        <ele>108.77</ele>
        <time>2016-06-09T09:55:07Z</time>
      </trkpt>
      <trkpt lat="48.59166" lon="1.96603">
        <ele>109.25</ele>
        <time>2016-06-09T09:55:30Z</time>
      </trkpt>
      <trkpt lat="48.59166" lon="1.96603">
        <ele>109.25</ele>
        <time>2016-06-09T09:55:54Z</time>
      </trkpt>
      <trkpt lat="48.59166" lon="1.96604">
        <ele>109.25</ele>
        <time>2016-06-09T09:56:16Z</time>
      </trkpt>
      <trkpt lat="48.59166" lon="1.96605">
        <ele>110.21</ele>
        <time>2016-06-09T09:56:32Z</time>
      </trkpt>
      <trkpt lat="48.59166" lon="1.96605">
        <ele>110.21</ele>
        <time>2016-06-09T09:56:33Z</time>
      </trkpt>
    </trkseg>
  </trk>
</gpx>